Observation data for Castolon 1NW BBNP on 08/14/2019      Previous  Date  Next       Current Mesonet Observations  Soil Data  Daily Summary Page  Observations in Plain Language
KCA2 140500Z 02001KT 35/15 A2993 RMK A01 T03460150  RH  031%=      5-min Rain = 0
KCA2 140501Z 00000KT 35/15 A2993 RMK A01 T03450149  RH  031%=      5-min Rain = 0
KCA2 140502Z 17001KT 35/15 A2993 RMK A01 T03450150  RH  031%=      5-min Rain = 0
KCA2 140503Z 18002KT 34/15 A2993 RMK A01 T03440150  RH  031%=      5-min Rain = 0
KCA2 140504Z 22003KT 34/15 A2993 RMK A01 T03430150  RH  031%=      5-min Rain = 0
KCA2 140505Z 20004KT 34/15 A2993 RMK A01 T03420150  RH  032%=      5-min Rain = 0
KCA2 140506Z 19002KT 34/15 A2993 RMK A01 T03420149  RH  032%=      5-min Rain = 0
KCA2 140507Z 25005KT 34/15 A2993 RMK A01 T03420151  RH  032%=      5-min Rain = 0
KCA2 140508Z 25007KT 34/15 A2993 RMK A01 T03410152  RH  032%=      5-min Rain = 0
KCA2 140509Z 25006KT 34/15 A2993 RMK A01 T03380152  RH  033%=      5-min Rain = 0
KCA2 140510Z 27006KT 34/15 A2993 RMK A01 T03360152  RH  033%=      5-min Rain = 0
KCA2 140526Z 28007KT 34/15 A2993 RMK A01 T03360153  RH  033%=      5-min Rain = 0
KCA2 140527Z 29006KT 34/15 A2993 RMK A01 T03360154  RH  034%=      5-min Rain = 0
KCA2 140528Z 29006KT 34/15 A2993 RMK A01 T03350154  RH  034%=      5-min Rain = 0
KCA2 140529Z 28008KT 33/15 A2993 RMK A01 T03340154  RH  034%=      5-min Rain = 0
KCA2 140530Z 29008KT 33/15 A2993 RMK A01 T03340153  RH  034%=      5-min Rain = 0
KCA2 140531Z 29006KT 34/15 A2993 RMK A01 T03350153  RH  034%=      5-min Rain = 0
KCA2 140532Z 29008KT 34/15 A2993 RMK A01 T03350153  RH  034%=      5-min Rain = 0
KCA2 140533Z 28008KT 34/15 A2993 RMK A01 T03360153  RH  033%=      5-min Rain = 0
KCA2 140534Z 30009KT 34/15 A2993 RMK A01 T03360153  RH  033%=      5-min Rain = 0
KCA2 140535Z 30008KT 34/15 A2993 RMK A01 T03360152  RH  033%=      5-min Rain = 0
KCA2 140536Z 30006KT 34/15 A2993 RMK A01 T03370152  RH  033%=      5-min Rain = 0
KCA2 140537Z 29007KT 34/15 A2993 RMK A01 T03380152  RH  033%=      5-min Rain = 0
KCA2 140538Z 31006KT 34/15 A2994 RMK A01 T03380152  RH  033%=      5-min Rain = 0
KCA2 140539Z 29005KT 34/15 A2994 RMK A01 T03380152  RH  033%=      5-min Rain = 0
KCA2 140540Z 29004KT 34/15 A2994 RMK A01 T03380152  RH  033%=      5-min Rain = 0
KCA2 140541Z 29007KT 34/15 A2994 RMK A01 T03370152  RH  033%=      5-min Rain = 0
KCA2 140542Z 28007KT 34/15 A2994 RMK A01 T03360152  RH  033%=      5-min Rain = 0
KCA2 140543Z 29008KT 34/15 A2994 RMK A01 T03360152  RH  033%=      5-min Rain = 0
KCA2 140544Z 29007KT 34/15 A2994 RMK A01 T03360153  RH  033%=      5-min Rain = 0
KCA2 140545Z 28009KT 34/15 A2994 RMK A01 T03350153  RH  034%=      5-min Rain = 0
KCA2 140546Z 28010KT 33/15 A2994 RMK A01 T03340154  RH  034%=      5-min Rain = 0
KCA2 140547Z 29009KT 33/16 A2994 RMK A01 T03330155  RH  034%=      5-min Rain = 0
KCA2 140548Z 28009KT 33/16 A2994 RMK A01 T03320155  RH  035%=      5-min Rain = 0
KCA2 140549Z 28009KT 33/16 A2994 RMK A01 T03310155  RH  035%=      5-min Rain = 0
KCA2 140550Z 28008KT 33/16 A2994 RMK A01 T03300155  RH  035%=      5-min Rain = 0
KCA2 140551Z 29008KT 33/16 A2994 RMK A01 T03290155  RH  035%=      5-min Rain = 0
KCA2 140552Z 29009KT 33/16 A2994 RMK A01 T03290155  RH  035%=      5-min Rain = 0
KCA2 140553Z 29009KT 33/15 A2994 RMK A01 T03290154  RH  035%=      5-min Rain = 0
KCA2 140554Z 29007KT 33/15 A2994 RMK A01 T03290154  RH  035%=      5-min Rain = 0
KCA2 140555Z 29009KT 33/15 A2994 RMK A01 T03290154  RH  035%=      5-min Rain = 0
KCA2 140556Z 29009KT 33/15 A2994 RMK A01 T03290154  RH  035%=      5-min Rain = 0
KCA2 140557Z 29010KT 33/15 A2994 RMK A01 T03300154  RH  035%=      5-min Rain = 0
KCA2 140558Z 30008KT 33/15 A2994 RMK A01 T03300154  RH  035%=      5-min Rain = 0
KCA2 140559Z 30009KT 33/16 A2994 RMK A01 T03300155  RH  035%=      5-min Rain = 0
KCA2 140600Z 30009KT 33/16 A2994 RMK A01 T03300155  RH  035%=      5-min Rain = 0
KCA2 140601Z 29009KT 33/16 A2994 RMK A01 T03300155  RH  035%=      5-min Rain = 0
KCA2 140602Z 30007KT 33/15 A2994 RMK A01 T03300154  RH  035%=      5-min Rain = 0
KCA2 140603Z 30009KT 33/16 A2994 RMK A01 T03300155  RH  035%=      5-min Rain = 0
KCA2 140604Z 30009KT 33/16 A2994 RMK A01 T03300155  RH  035%=      5-min Rain = 0
KCA2 140605Z 30010KT 33/16 A2994 RMK A01 T03300155  RH  035%=      5-min Rain = 0
KCA2 140606Z 30008KT 33/16 A2994 RMK A01 T03300155  RH  035%=      5-min Rain = 0
KCA2 140607Z 30006KT 33/16 A2995 RMK A01 T03300155  RH  035%=      5-min Rain = 0
KCA2 140608Z 30008KT 33/16 A2995 RMK A01 T03290155  RH  035%=      5-min Rain = 0
KCA2 140609Z 30009KT 33/16 A2995 RMK A01 T03290155  RH  035%=      5-min Rain = 0
KCA2 140610Z 30009KT 33/16 A2995 RMK A01 T03280155  RH  035%=      5-min Rain = 0
KCA2 140611Z 29009KT 33/16 A2995 RMK A01 T03280156  RH  035%=      5-min Rain = 0
KCA2 140612Z 30008KT 33/16 A2995 RMK A01 T03290155  RH  035%=      5-min Rain = 0
KCA2 140613Z 29010KT 33/16 A2995 RMK A01 T03290155  RH  035%=      5-min Rain = 0
KCA2 140614Z 29009KT 33/16 A2995 RMK A01 T03290155  RH  035%=      5-min Rain = 0
KCA2 140615Z 30010KT 33/16 A2995 RMK A01 T03290156  RH  035%=      5-min Rain = 0
KCA2 140616Z 29009KT 33/16 A2995 RMK A01 T03290156  RH  035%=      5-min Rain = 0
KCA2 140617Z 29010KT 33/16 A2995 RMK A01 T03290156  RH  035%=      5-min Rain = 0
KCA2 140618Z 29008KT 33/16 A2995 RMK A01 T03280156  RH  036%=      5-min Rain = 0
KCA2 140619Z 29009KT 33/16 A2995 RMK A01 T03280156  RH  036%=      5-min Rain = 0
KCA2 140620Z 29008KT 33/16 A2995 RMK A01 T03280157  RH  036%=      5-min Rain = 0
KCA2 140621Z 29008KT 33/16 A2995 RMK A01 T03270157  RH  036%=      5-min Rain = 0
KCA2 140622Z 29008KT 33/16 A2995 RMK A01 T03260157  RH  036%=      5-min Rain = 0
KCA2 140623Z 29009KT 33/16 A2995 RMK A01 T03250158  RH  037%=      5-min Rain = 0
KCA2 140624Z 29009KT 32/16 A2995 RMK A01 T03240158  RH  037%=      5-min Rain = 0
KCA2 140625Z 29009KT 32/16 A2995 RMK A01 T03240158  RH  037%=      5-min Rain = 0
KCA2 140626Z 29010KT 32/16 A2995 RMK A01 T03240158  RH  037%=      5-min Rain = 0
KCA2 140627Z 29008KT 32/16 A2995 RMK A01 T03230158  RH  037%=      5-min Rain = 0
KCA2 140628Z 29009KT 32/16 A2995 RMK A01 T03230158  RH  037%=      5-min Rain = 0
KCA2 140629Z 29009KT 32/16 A2995 RMK A01 T03230158  RH  037%=      5-min Rain = 0
KCA2 140630Z 29009KT 32/16 A2995 RMK A01 T03230158  RH  037%=      5-min Rain = 0
KCA2 140631Z 29008KT 32/16 A2996 RMK A01 T03220158  RH  037%=      5-min Rain = 0
KCA2 140632Z 28010KT 32/16 A2996 RMK A01 T03230158  RH  037%=      5-min Rain = 0
KCA2 140633Z 29010KT 32/16 A2996 RMK A01 T03220157  RH  037%=      5-min Rain = 0
KCA2 140634Z 29010KT 32/16 A2996 RMK A01 T03220157  RH  037%=      5-min Rain = 0
KCA2 140635Z 29009KT 32/16 A2996 RMK A01 T03220157  RH  037%=      5-min Rain = 0
KCA2 140636Z 29010KT 32/16 A2996 RMK A01 T03210157  RH  037%=      5-min Rain = 0
KCA2 140637Z 29009KT 32/16 A2996 RMK A01 T03210157  RH  037%=      5-min Rain = 0
KCA2 140638Z 29008KT 32/16 A2996 RMK A01 T03220157  RH  037%=      5-min Rain = 0
KCA2 140639Z 29009KT 32/16 A2996 RMK A01 T03220157  RH  037%=      5-min Rain = 0
KCA2 140640Z 29008KT 32/16 A2996 RMK A01 T03220157  RH  037%=      5-min Rain = 0
KCA2 140641Z 29009KT 32/16 A2996 RMK A01 T03210158  RH  037%=      5-min Rain = 0
KCA2 140642Z 29010KT 32/16 A2996 RMK A01 T03210158  RH  038%=      5-min Rain = 0
KCA2 140643Z 29006KT 32/16 A2996 RMK A01 T03200158  RH  038%=      5-min Rain = 0
KCA2 140644Z 29008KT 32/16 A2996 RMK A01 T03200158  RH  038%=      5-min Rain = 0
KCA2 140645Z 29009KT 32/16 A2996 RMK A01 T03200158  RH  038%=      5-min Rain = 0
KCA2 140646Z 29007KT 32/16 A2996 RMK A01 T03190158  RH  038%=      5-min Rain = 0
KCA2 140647Z 29007KT 32/16 A2996 RMK A01 T03200158  RH  038%=      5-min Rain = 0
KCA2 140648Z 29008KT 32/16 A2995 RMK A01 T03200158  RH  038%=      5-min Rain = 0
KCA2 140649Z 28008KT 32/16 A2995 RMK A01 T03190158  RH  038%=      5-min Rain = 0
KCA2 140650Z 29008KT 32/16 A2995 RMK A01 T03180159  RH  038%=      5-min Rain = 0
KCA2 140651Z 29009KT 32/16 A2995 RMK A01 T03180159  RH  038%=      5-min Rain = 0
KCA2 140652Z 29009KT 32/16 A2995 RMK A01 T03170158  RH  038%=      5-min Rain = 0
KCA2 140653Z 29007KT 32/16 A2995 RMK A01 T03170158  RH  038%=      5-min Rain = 0
KCA2 140654Z 29009KT 32/16 A2995 RMK A01 T03160159  RH  039%=      5-min Rain = 0
KCA2 140655Z 29009KT 32/16 A2995 RMK A01 T03160159  RH  039%=      5-min Rain = 0
KCA2 140656Z 29009KT 32/16 A2995 RMK A01 T03160159  RH  039%=      5-min Rain = 0
KCA2 140657Z 29009KT 32/16 A2996 RMK A01 T03160159  RH  039%=      5-min Rain = 0
KCA2 140658Z 29009KT 32/16 A2996 RMK A01 T03160159  RH  039%=      5-min Rain = 0
KCA2 140659Z 29009KT 32/16 A2996 RMK A01 T03150159  RH  039%=      5-min Rain = 0
KCA2 140700Z 29010KT 32/16 A2996 RMK A01 T03150159  RH  039%=      5-min Rain = 0
KCA2 140701Z 29010KT 32/16 A2996 RMK A01 T03150159  RH  039%=      5-min Rain = 0
KCA2 140702Z 29009KT 32/16 A2995 RMK A01 T03150159  RH  039%=      5-min Rain = 0
KCA2 140703Z 28010KT 32/16 A2996 RMK A01 T03150158  RH  039%=      5-min Rain = 0
KCA2 140704Z 29009KT 32/16 A2996 RMK A01 T03150159  RH  039%=      5-min Rain = 0
KCA2 140705Z 29010KT 31/16 A2996 RMK A01 T03140158  RH  039%=      5-min Rain = 0
KCA2 140706Z 29010KT 31/16 A2996 RMK A01 T03140159  RH  039%=      5-min Rain = 0
KCA2 140707Z 29009KT 31/16 A2996 RMK A01 T03140159  RH  039%=      5-min Rain = 0
KCA2 140708Z 29009KT 31/16 A2996 RMK A01 T03140159  RH  039%=      5-min Rain = 0
KCA2 140709Z 29009KT 31/16 A2996 RMK A01 T03140159  RH  039%=      5-min Rain = 0
KCA2 140710Z 29008KT 31/16 A2996 RMK A01 T03140159  RH  039%=      5-min Rain = 0
KCA2 140711Z 29009KT 31/16 A2996 RMK A01 T03140159  RH  039%=      5-min Rain = 0
KCA2 140712Z 29009KT 31/16 A2996 RMK A01 T03130159  RH  039%=      5-min Rain = 0
KCA2 140713Z 29009KT 31/16 A2996 RMK A01 T03130158  RH  039%=      5-min Rain = 0
KCA2 140714Z 29009KT 31/16 A2996 RMK A01 T03140157  RH  039%=      5-min Rain = 0
KCA2 140715Z 29009KT 32/16 A2996 RMK A01 T03150157  RH  039%=      5-min Rain = 0
KCA2 140716Z 28009KT 32/16 A2996 RMK A01 T03150158  RH  039%=      5-min Rain = 0
KCA2 140717Z 28009KT 32/16 A2996 RMK A01 T03150157  RH  038%=      5-min Rain = 0
KCA2 140718Z 28009KT 32/16 A2996 RMK A01 T03160157  RH  038%=      5-min Rain = 0
KCA2 140719Z 28009KT 32/16 A2996 RMK A01 T03170157  RH  038%=      5-min Rain = 0
KCA2 140720Z 28010KT 32/16 A2996 RMK A01 T03170158  RH  038%=      5-min Rain = 0
KCA2 140721Z 28010KT 32/16 A2996 RMK A01 T03160157  RH  038%=      5-min Rain = 0
KCA2 140722Z 28010KT 32/16 A2996 RMK A01 T03150157  RH  038%=      5-min Rain = 0
KCA2 140723Z 29009KT 32/16 A2996 RMK A01 T03150157  RH  038%=      5-min Rain = 0
KCA2 140724Z 30009KT 31/16 A2996 RMK A01 T03140156  RH  039%=      5-min Rain = 0
KCA2 140725Z 30008KT 31/16 A2996 RMK A01 T03140156  RH  038%=      5-min Rain = 0
KCA2 140726Z 29009KT 32/16 A2996 RMK A01 T03150156  RH  038%=      5-min Rain = 0
KCA2 140727Z 28010KT 32/16 A2996 RMK A01 T03150156  RH  038%=      5-min Rain = 0
KCA2 140728Z 28010KT 31/16 A2996 RMK A01 T03140156  RH  038%=      5-min Rain = 0
KCA2 140729Z 29010KT 31/16 A2996 RMK A01 T03140155  RH  038%=      5-min Rain = 0
KCA2 140730Z 28010KT 31/16 A2996 RMK A01 T03130155  RH  038%=      5-min Rain = 0
KCA2 140731Z 28010KT 31/16 A2996 RMK A01 T03130155  RH  038%=      5-min Rain = 0
KCA2 140732Z 29011KT 31/16 A2996 RMK A01 T03130155  RH  038%=      5-min Rain = 0
KCA2 140733Z 29012KT 31/16 A2996 RMK A01 T03140155  RH  038%=      5-min Rain = 0
KCA2 140734Z 29011KT 32/16 A2996 RMK A01 T03150155  RH  038%=      5-min Rain = 0
KCA2 140735Z 29010KT 32/16 A2996 RMK A01 T03150156  RH  038%=      5-min Rain = 0
KCA2 140736Z 30010KT 31/16 A2996 RMK A01 T03140156  RH  038%=      5-min Rain = 0
KCA2 140737Z 29010KT 31/16 A2996 RMK A01 T03140156  RH  039%=      5-min Rain = 0
KCA2 140738Z 29010KT 31/16 A2996 RMK A01 T03130156  RH  039%=      5-min Rain = 0
KCA2 140739Z 30009KT 31/16 A2996 RMK A01 T03130156  RH  039%=      5-min Rain = 0
KCA2 140740Z 29007KT 31/16 A2996 RMK A01 T03130156  RH  039%=      5-min Rain = 0
KCA2 140741Z 29008KT 31/16 A2996 RMK A01 T03120156  RH  039%=      5-min Rain = 0
KCA2 140742Z 29008KT 31/16 A2996 RMK A01 T03120156  RH  039%=      5-min Rain = 0
KCA2 140743Z 29011KT 31/16 A2996 RMK A01 T03110156  RH  039%=      5-min Rain = 0
KCA2 140744Z 29009KT 31/16 A2996 RMK A01 T03100157  RH  039%=      5-min Rain = 0
KCA2 140745Z 28009KT 31/16 A2996 RMK A01 T03100157  RH  040%=      5-min Rain = 0
KCA2 140746Z 28009KT 31/16 A2996 RMK A01 T03100157  RH  040%=      5-min Rain = 0
KCA2 140747Z 28010KT 31/16 A2996 RMK A01 T03090157  RH  040%=      5-min Rain = 0
KCA2 140748Z 28010KT 31/16 A2996 RMK A01 T03090158  RH  040%=      5-min Rain = 0
KCA2 140749Z 28010KT 31/16 A2996 RMK A01 T03090157  RH  040%=      5-min Rain = 0
KCA2 140750Z 28010KT 31/16 A2996 RMK A01 T03090157  RH  040%=      5-min Rain = 0
KCA2 140751Z 28009KT 31/16 A2996 RMK A01 T03080157  RH  040%=      5-min Rain = 0
KCA2 140752Z 28009KT 31/16 A2996 RMK A01 T03080157  RH  040%=      5-min Rain = 0
KCA2 140753Z 28010KT 31/16 A2996 RMK A01 T03080157  RH  040%=      5-min Rain = 0
KCA2 140754Z 28010KT 31/16 A2996 RMK A01 T03080157  RH  040%=      5-min Rain = 0
KCA2 140755Z 28009KT 31/16 A2996 RMK A01 T03080156  RH  040%=      5-min Rain = 0
KCA2 140756Z 28010KT 31/16 A2996 RMK A01 T03080156  RH  040%=      5-min Rain = 0
KCA2 140757Z 29011KT 31/16 A2996 RMK A01 T03080156  RH  040%=      5-min Rain = 0
KCA2 140758Z 29011KT 31/16 A2996 RMK A01 T03090156  RH  040%=      5-min Rain = 0
KCA2 140759Z 29011KT 31/16 A2996 RMK A01 T03090157  RH  040%=      5-min Rain = 0
KCA2 140800Z 29010KT 31/16 A2996 RMK A01 T03100157  RH  040%=      5-min Rain = 0
KCA2 140801Z 29010KT 31/16 A2996 RMK A01 T03100157  RH  040%=      5-min Rain = 0
KCA2 140802Z 29010KT 31/16 A2996 RMK A01 T03100157  RH  039%=      5-min Rain = 0
KCA2 140803Z 29009KT 31/16 A2996 RMK A01 T03110157  RH  039%=      5-min Rain = 0
KCA2 140804Z 29009KT 31/16 A2996 RMK A01 T03110157  RH  039%=      5-min Rain = 0
KCA2 140805Z 29010KT 31/16 A2996 RMK A01 T03110157  RH  039%=      5-min Rain = 0
KCA2 140806Z 28009KT 31/16 A2996 RMK A01 T03110157  RH  040%=      5-min Rain = 0
KCA2 140807Z 28010KT 31/16 A2996 RMK A01 T03110157  RH  040%=      5-min Rain = 0
KCA2 140808Z 28009KT 31/16 A2996 RMK A01 T03100157  RH  040%=      5-min Rain = 0
KCA2 140809Z 28009KT 31/16 A2996 RMK A01 T03100157  RH  040%=      5-min Rain = 0
KCA2 140810Z 28009KT 31/16 A2996 RMK A01 T03090157  RH  040%=      5-min Rain = 0
KCA2 140811Z 28009KT 31/16 A2996 RMK A01 T03090157  RH  040%=      5-min Rain = 0
KCA2 140812Z 28008KT 31/16 A2996 RMK A01 T03080158  RH  040%=      5-min Rain = 0
KCA2 140813Z 28008KT 31/16 A2996 RMK A01 T03080158  RH  040%=      5-min Rain = 0
KCA2 140814Z 28008KT 31/16 A2996 RMK A01 T03070158  RH  040%=      5-min Rain = 0
KCA2 140815Z 28008KT 31/16 A2996 RMK A01 T03070158  RH  041%=      5-min Rain = 0
KCA2 140816Z 29008KT 31/16 A2996 RMK A01 T03060158  RH  041%=      5-min Rain = 0
KCA2 140817Z 29008KT 31/16 A2996 RMK A01 T03060158  RH  041%=      5-min Rain = 0
KCA2 140818Z 29009KT 31/16 A2996 RMK A01 T03060158  RH  041%=      5-min Rain = 0
KCA2 140819Z 28008KT 31/16 A2996 RMK A01 T03060158  RH  041%=      5-min Rain = 0
KCA2 140820Z 28009KT 31/16 A2996 RMK A01 T03060158  RH  041%=      5-min Rain = 0
KCA2 140821Z 28008KT 31/16 A2996 RMK A01 T03060158  RH  041%=      5-min Rain = 0
KCA2 140822Z 28009KT 31/16 A2996 RMK A01 T03060158  RH  041%=      5-min Rain = 0
KCA2 140823Z 28008KT 31/16 A2996 RMK A01 T03060157  RH  041%=      5-min Rain = 0
KCA2 140824Z 29008KT 31/16 A2996 RMK A01 T03060158  RH  041%=      5-min Rain = 0
KCA2 140825Z 28007KT 31/16 A2996 RMK A01 T03060158  RH  041%=      5-min Rain = 0
KCA2 140826Z 29008KT 31/16 A2996 RMK A01 T03070158  RH  041%=      5-min Rain = 0
KCA2 140827Z 28008KT 31/16 A2996 RMK A01 T03070158  RH  041%=      5-min Rain = 0
KCA2 140828Z 29009KT 31/16 A2996 RMK A01 T03070158  RH  041%=      5-min Rain = 0
KCA2 140829Z 29009KT 31/16 A2996 RMK A01 T03070158  RH  041%=      5-min Rain = 0
KCA2 140830Z 28008KT 31/16 A2996 RMK A01 T03080158  RH  041%=      5-min Rain = 0
KCA2 140831Z 28008KT 31/16 A2996 RMK A01 T03070158  RH  041%=      5-min Rain = 0
KCA2 140832Z 29008KT 31/16 A2996 RMK A01 T03080159  RH  041%=      5-min Rain = 0
KCA2 140833Z 29009KT 31/16 A2996 RMK A01 T03070159  RH  041%=      5-min Rain = 0
KCA2 140834Z 29009KT 31/16 A2996 RMK A01 T03070159  RH  041%=      5-min Rain = 0
KCA2 140835Z 28009KT 31/16 A2996 RMK A01 T03070159  RH  041%=      5-min Rain = 0
KCA2 140836Z 29009KT 31/16 A2996 RMK A01 T03060159  RH  041%=      5-min Rain = 0
KCA2 140837Z 29009KT 31/16 A2996 RMK A01 T03070159  RH  041%=      5-min Rain = 0
KCA2 140838Z 29009KT 31/16 A2996 RMK A01 T03070159  RH  041%=      5-min Rain = 0
KCA2 140839Z 29009KT 31/16 A2996 RMK A01 T03070160  RH  041%=      5-min Rain = 0
KCA2 140840Z 29009KT 31/16 A2996 RMK A01 T03060160  RH  041%=      5-min Rain = 0
KCA2 140841Z 29009KT 31/16 A2996 RMK A01 T03060161  RH  041%=      5-min Rain = 0
KCA2 140842Z 29009KT 31/16 A2996 RMK A01 T03060161  RH  042%=      5-min Rain = 0
KCA2 140843Z 29009KT 31/16 A2996 RMK A01 T03050161  RH  042%=      5-min Rain = 0
KCA2 140844Z 29009KT 31/16 A2996 RMK A01 T03050161  RH  042%=      5-min Rain = 0
KCA2 140845Z 29008KT 31/16 A2996 RMK A01 T03050162  RH  042%=      5-min Rain = 0
KCA2 140846Z 29010KT 31/16 A2996 RMK A01 T03050162  RH  042%=      5-min Rain = 0
KCA2 140847Z 29009KT 30/16 A2996 RMK A01 T03040162  RH  042%=      5-min Rain = 0
KCA2 140848Z 29009KT 30/16 A2996 RMK A01 T03040163  RH  043%=      5-min Rain = 0
KCA2 140849Z 29009KT 30/16 A2996 RMK A01 T03030163  RH  043%=      5-min Rain = 0
KCA2 140850Z 28009KT 30/16 A2996 RMK A01 T03030163  RH  043%=      5-min Rain = 0
KCA2 140851Z 28010KT 30/16 A2996 RMK A01 T03030163  RH  043%=      5-min Rain = 0
KCA2 140852Z 28010KT 30/16 A2996 RMK A01 T03020163  RH  043%=      5-min Rain = 0
KCA2 140853Z 29007KT 30/16 A2996 RMK A01 T03030163  RH  043%=      5-min Rain = 0
KCA2 140854Z 29008KT 30/16 A2996 RMK A01 T03030163  RH  043%=      5-min Rain = 0
KCA2 140855Z 29008KT 30/16 A2996 RMK A01 T03020162  RH  043%=      5-min Rain = 0
KCA2 140856Z 28008KT 30/16 A2996 RMK A01 T03030162  RH  043%=      5-min Rain = 0
KCA2 140857Z 28009KT 30/16 A2996 RMK A01 T03030162  RH  043%=      5-min Rain = 0
KCA2 140858Z 28009KT 30/16 A2996 RMK A01 T03030162  RH  042%=      5-min Rain = 0
KCA2 140859Z 28009KT 30/16 A2996 RMK A01 T03040161  RH  042%=      5-min Rain = 0
KCA2 140900Z 28008KT 30/16 A2996 RMK A01 T03040161  RH  042%=      5-min Rain = 0
KCA2 140901Z 28008KT 30/16 A2996 RMK A01 T03040161  RH  042%=      5-min Rain = 0
KCA2 140902Z 28009KT 30/16 A2996 RMK A01 T03040161  RH  042%=      5-min Rain = 0
KCA2 140903Z 28008KT 30/16 A2996 RMK A01 T03040161  RH  042%=      5-min Rain = 0
KCA2 140904Z 28008KT 30/16 A2996 RMK A01 T03030161  RH  042%=      5-min Rain = 0
KCA2 140905Z 28008KT 30/16 A2996 RMK A01 T03030161  RH  043%=      5-min Rain = 0
KCA2 140906Z 28007KT 30/16 A2996 RMK A01 T03020161  RH  043%=      5-min Rain = 0
KCA2 140907Z 28008KT 30/16 A2996 RMK A01 T03010162  RH  043%=      5-min Rain = 0
KCA2 140908Z 28009KT 30/16 A2996 RMK A01 T03010161  RH  043%=      5-min Rain = 0
KCA2 140909Z 28008KT 30/16 A2996 RMK A01 T03010161  RH  043%=      5-min Rain = 0
KCA2 140910Z 28009KT 30/16 A2996 RMK A01 T03010162  RH  043%=      5-min Rain = 0
KCA2 140911Z 29010KT 30/16 A2996 RMK A01 T03010161  RH  043%=      5-min Rain = 0
KCA2 140912Z 29008KT 30/16 A2996 RMK A01 T03010161  RH  043%=      5-min Rain = 0
KCA2 140913Z 29008KT 30/16 A2996 RMK A01 T03020161  RH  043%=      5-min Rain = 0
KCA2 140914Z 29007KT 30/16 A2996 RMK A01 T03020161  RH  043%=      5-min Rain = 0
KCA2 140915Z 29008KT 30/16 A2996 RMK A01 T03020161  RH  043%=      5-min Rain = 0
KCA2 140916Z 28009KT 30/16 A2996 RMK A01 T03020161  RH  042%=      5-min Rain = 0
KCA2 140917Z 28010KT 30/16 A2996 RMK A01 T03020161  RH  042%=      5-min Rain = 0
KCA2 140918Z 28009KT 30/16 A2996 RMK A01 T03030160  RH  042%=      5-min Rain = 0
KCA2 140919Z 28008KT 30/16 A2996 RMK A01 T03030160  RH  042%=      5-min Rain = 0
KCA2 140920Z 29007KT 30/16 A2996 RMK A01 T03030160  RH  042%=      5-min Rain = 0
KCA2 140921Z 29009KT 30/16 A2996 RMK A01 T03030160  RH  042%=      5-min Rain = 0
KCA2 140922Z 28007KT 30/16 A2996 RMK A01 T03030160  RH  042%=      5-min Rain = 0
KCA2 140923Z 28008KT 30/16 A2996 RMK A01 T03030160  RH  042%=      5-min Rain = 0
KCA2 140924Z 28008KT 30/16 A2996 RMK A01 T03030161  RH  042%=      5-min Rain = 0
KCA2 140925Z 28008KT 30/16 A2996 RMK A01 T03020161  RH  042%=      5-min Rain = 0
KCA2 140926Z 28007KT 30/16 A2996 RMK A01 T03020161  RH  043%=      5-min Rain = 0
KCA2 140927Z 29008KT 30/16 A2996 RMK A01 T03020161  RH  043%=      5-min Rain = 0
KCA2 140928Z 29008KT 30/16 A2996 RMK A01 T03020161  RH  043%=      5-min Rain = 0
KCA2 140929Z 29009KT 30/16 A2995 RMK A01 T03020161  RH  042%=      5-min Rain = 0
KCA2 140930Z 29008KT 30/16 A2995 RMK A01 T03020161  RH  042%=      5-min Rain = 0
KCA2 140931Z 29007KT 30/16 A2995 RMK A01 T03020161  RH  042%=      5-min Rain = 0
KCA2 140932Z 29008KT 30/16 A2995 RMK A01 T03020160  RH  042%=      5-min Rain = 0
KCA2 140933Z 29009KT 30/16 A2995 RMK A01 T03030160  RH  042%=      5-min Rain = 0
KCA2 140934Z 29008KT 30/16 A2995 RMK A01 T03030160  RH  042%=      5-min Rain = 0
KCA2 140935Z 29008KT 30/16 A2995 RMK A01 T03030161  RH  042%=      5-min Rain = 0
KCA2 140936Z 29008KT 30/16 A2995 RMK A01 T03040161  RH  042%=      5-min Rain = 0
KCA2 140937Z 29008KT 30/16 A2995 RMK A01 T03030160  RH  042%=      5-min Rain = 0
KCA2 140938Z 29007KT 30/16 A2995 RMK A01 T03030161  RH  042%=      5-min Rain = 0
KCA2 140939Z 29007KT 30/16 A2995 RMK A01 T03030161  RH  042%=      5-min Rain = 0
KCA2 140940Z 29007KT 30/16 A2995 RMK A01 T03030161  RH  042%=      5-min Rain = 0
KCA2 140941Z 29006KT 30/16 A2995 RMK A01 T03030162  RH  043%=      5-min Rain = 0
KCA2 140942Z 29007KT 30/16 A2995 RMK A01 T03030162  RH  043%=      5-min Rain = 0
KCA2 140943Z 28007KT 30/16 A2995 RMK A01 T03030162  RH  043%=      5-min Rain = 0
KCA2 140944Z 28007KT 30/16 A2995 RMK A01 T03020162  RH  043%=      5-min Rain = 0
KCA2 140945Z 28008KT 30/16 A2995 RMK A01 T03020162  RH  043%=      5-min Rain = 0
KCA2 140946Z 28007KT 30/16 A2995 RMK A01 T03020161  RH  043%=      5-min Rain = 0
KCA2 140947Z 28006KT 30/16 A2995 RMK A01 T03020162  RH  043%=      5-min Rain = 0
KCA2 140948Z 28006KT 30/16 A2995 RMK A01 T03020162  RH  043%=      5-min Rain = 0
KCA2 140949Z 28007KT 30/16 A2995 RMK A01 T03020162  RH  043%=      5-min Rain = 0
KCA2 140950Z 28007KT 30/16 A2995 RMK A01 T03020162  RH  043%=      5-min Rain = 0
KCA2 140951Z 28008KT 30/16 A2995 RMK A01 T03020162  RH  043%=      5-min Rain = 0
KCA2 140952Z 28008KT 30/16 A2995 RMK A01 T03020162  RH  043%=      5-min Rain = 0
KCA2 140953Z 28008KT 30/16 A2995 RMK A01 T03020162  RH  043%=      5-min Rain = 0
KCA2 140954Z 28009KT 30/16 A2995 RMK A01 T03020162  RH  043%=      5-min Rain = 0
KCA2 140955Z 28008KT 30/16 A2995 RMK A01 T03020162  RH  043%=      5-min Rain = 0
KCA2 140956Z 28008KT 30/16 A2995 RMK A01 T03020162  RH  043%=      5-min Rain = 0
KCA2 140957Z 28007KT 30/16 A2995 RMK A01 T03010162  RH  043%=      5-min Rain = 0
KCA2 140958Z 28007KT 30/16 A2995 RMK A01 T03010162  RH  043%=      5-min Rain = 0
KCA2 140959Z 29006KT 30/16 A2995 RMK A01 T03010162  RH  043%=      5-min Rain = 0
KCA2 141000Z 29007KT 30/16 A2995 RMK A01 T03010162  RH  043%=      5-min Rain = 0
KCA2 141001Z 28007KT 30/16 A2995 RMK A01 T03010161  RH  043%=      5-min Rain = 0
KCA2 141002Z 29008KT 30/16 A2995 RMK A01 T03020161  RH  043%=      5-min Rain = 0
KCA2 141003Z 29009KT 30/16 A2995 RMK A01 T03020160  RH  042%=      5-min Rain = 0
KCA2 141004Z 29008KT 30/16 A2995 RMK A01 T03040161  RH  042%=      5-min Rain = 0
KCA2 141005Z 29008KT 30/16 A2995 RMK A01 T03030161  RH  042%=      5-min Rain = 0
KCA2 141006Z 29008KT 30/16 A2995 RMK A01 T03030161  RH  042%=      5-min Rain = 0
KCA2 141007Z 29008KT 30/16 A2995 RMK A01 T03030160  RH  042%=      5-min Rain = 0
KCA2 141008Z 29009KT 30/16 A2995 RMK A01 T03030161  RH  042%=      5-min Rain = 0
KCA2 141009Z 29010KT 30/16 A2995 RMK A01 T03040160  RH  042%=      5-min Rain = 0
KCA2 141010Z 29009KT 30/16 A2995 RMK A01 T03040160  RH  042%=      5-min Rain = 0
KCA2 141011Z 29008KT 31/16 A2995 RMK A01 T03050160  RH  042%=      5-min Rain = 0
KCA2 141012Z 28008KT 31/16 A2995 RMK A01 T03050160  RH  042%=      5-min Rain = 0
KCA2 141013Z 29007KT 31/16 A2995 RMK A01 T03050160  RH  042%=      5-min Rain = 0
KCA2 141014Z 28007KT 31/16 A2995 RMK A01 T03050161  RH  042%=      5-min Rain = 0
KCA2 141015Z 28007KT 31/16 A2995 RMK A01 T03050160  RH  042%=      5-min Rain = 0
KCA2 141016Z 28008KT 31/16 A2995 RMK A01 T03050160  RH  042%=      5-min Rain = 0
KCA2 141017Z 28008KT 31/16 A2995 RMK A01 T03050160  RH  042%=      5-min Rain = 0
KCA2 141018Z 28007KT 31/16 A2995 RMK A01 T03050160  RH  042%=      5-min Rain = 0
KCA2 141019Z 28007KT 31/16 A2995 RMK A01 T03050160  RH  042%=      5-min Rain = 0
KCA2 141020Z 28006KT 30/16 A2995 RMK A01 T03040161  RH  042%=      5-min Rain = 0
KCA2 141021Z 29007KT 30/16 A2995 RMK A01 T03040161  RH  042%=      5-min Rain = 0
KCA2 141022Z 29007KT 30/16 A2995 RMK A01 T03040162  RH  042%=      5-min Rain = 0
KCA2 141023Z 29008KT 30/16 A2995 RMK A01 T03030162  RH  042%=      5-min Rain = 0
KCA2 141024Z 29008KT 30/16 A2995 RMK A01 T03030162  RH  042%=      5-min Rain = 0
KCA2 141025Z 29008KT 30/16 A2995 RMK A01 T03030162  RH  043%=      5-min Rain = 0
KCA2 141026Z 29008KT 30/16 A2995 RMK A01 T03030162  RH  043%=      5-min Rain = 0
KCA2 141027Z 30008KT 30/16 A2995 RMK A01 T03030162  RH  043%=      5-min Rain = 0
KCA2 141028Z 29008KT 30/16 A2995 RMK A01 T03040162  RH  043%=      5-min Rain = 0
KCA2 141029Z 29008KT 30/16 A2995 RMK A01 T03040162  RH  042%=      5-min Rain = 0
KCA2 141030Z 29008KT 30/16 A2995 RMK A01 T03030162  RH  042%=      5-min Rain = 0
KCA2 141031Z 29008KT 30/16 A2995 RMK A01 T03040162  RH  042%=      5-min Rain = 0
KCA2 141032Z 29008KT 30/16 A2995 RMK A01 T03030161  RH  042%=      5-min Rain = 0
KCA2 141033Z 29008KT 30/16 A2995 RMK A01 T03040161  RH  042%=      5-min Rain = 0
KCA2 141034Z 29008KT 30/16 A2995 RMK A01 T03040161  RH  042%=      5-min Rain = 0
KCA2 141035Z 30009KT 30/16 A2995 RMK A01 T03040161  RH  042%=      5-min Rain = 0
KCA2 141036Z 29008KT 30/16 A2995 RMK A01 T03040161  RH  042%=      5-min Rain = 0
KCA2 141037Z 30008KT 31/16 A2995 RMK A01 T03050161  RH  042%=      5-min Rain = 0
KCA2 141038Z 30009KT 31/16 A2995 RMK A01 T03050161  RH  042%=      5-min Rain = 0
KCA2 141039Z 30007KT 31/16 A2995 RMK A01 T03050161  RH  042%=      5-min Rain = 0
KCA2 141040Z 30007KT 31/16 A2995 RMK A01 T03050161  RH  042%=      5-min Rain = 0
KCA2 141041Z 30007KT 30/16 A2995 RMK A01 T03040161  RH  042%=      5-min Rain = 0
KCA2 141042Z 29007KT 30/16 A2995 RMK A01 T03030161  RH  042%=      5-min Rain = 0
KCA2 141043Z 29007KT 30/16 A2995 RMK A01 T03030161  RH  042%=      5-min Rain = 0
KCA2 141044Z 29009KT 30/16 A2995 RMK A01 T03030161  RH  042%=      5-min Rain = 0
KCA2 141045Z 29008KT 30/16 A2995 RMK A01 T03030160  RH  042%=      5-min Rain = 0
KCA2 141046Z 30008KT 30/16 A2995 RMK A01 T03030161  RH  042%=      5-min Rain = 0
KCA2 141047Z 30009KT 30/16 A2995 RMK A01 T03030161  RH  042%=      5-min Rain = 0
KCA2 141048Z 29009KT 30/16 A2995 RMK A01 T03030160  RH  042%=      5-min Rain = 0
KCA2 141049Z 30008KT 30/16 A2995 RMK A01 T03030160  RH  042%=      5-min Rain = 0
KCA2 141050Z 30008KT 30/16 A2995 RMK A01 T03030160  RH  042%=      5-min Rain = 0
KCA2 141051Z 29008KT 30/16 A2995 RMK A01 T03030161  RH  042%=      5-min Rain = 0
KCA2 141052Z 29008KT 30/16 A2995 RMK A01 T03030161  RH  042%=      5-min Rain = 0
KCA2 141053Z 30008KT 30/16 A2995 RMK A01 T03030161  RH  042%=      5-min Rain = 0
KCA2 141054Z 29008KT 30/16 A2995 RMK A01 T03030161  RH  042%=      5-min Rain = 0
KCA2 141055Z 29008KT 30/16 A2995 RMK A01 T03030161  RH  042%=      5-min Rain = 0
KCA2 141056Z 29007KT 30/16 A2995 RMK A01 T03020161  RH  043%=      5-min Rain = 0
KCA2 141057Z 29007KT 30/16 A2995 RMK A01 T03020161  RH  043%=      5-min Rain = 0
KCA2 141058Z 30007KT 30/16 A2995 RMK A01 T03020161  RH  043%=      5-min Rain = 0
KCA2 141059Z 30007KT 30/16 A2995 RMK A01 T03010162  RH  043%=      5-min Rain = 0
KCA2 141100Z 30007KT 30/16 A2995 RMK A01 T03010162  RH  043%=      5-min Rain = 0
KCA2 141101Z 30008KT 30/16 A2995 RMK A01 T03010162  RH  043%=      5-min Rain = 0
KCA2 141102Z 30008KT 30/16 A2995 RMK A01 T03010162  RH  043%=      5-min Rain = 0
KCA2 141103Z 29008KT 30/16 A2995 RMK A01 T03010162  RH  043%=      5-min Rain = 0
KCA2 141104Z 30007KT 30/16 A2995 RMK A01 T03010161  RH  043%=      5-min Rain = 0
KCA2 141105Z 29007KT 30/16 A2995 RMK A01 T03010161  RH  043%=      5-min Rain = 0
KCA2 141106Z 29007KT 30/16 A2995 RMK A01 T03010162  RH  043%=      5-min Rain = 0
KCA2 141107Z 29006KT 30/16 A2995 RMK A01 T03010162  RH  043%=      5-min Rain = 0
KCA2 141108Z 29006KT 30/16 A2995 RMK A01 T03010163  RH  043%=      5-min Rain = 0
KCA2 141109Z 28005KT 30/16 A2995 RMK A01 T03000163  RH  044%=      5-min Rain = 0
KCA2 141110Z 29006KT 30/16 A2995 RMK A01 T02990163  RH  044%=      5-min Rain = 0
KCA2 141111Z 29006KT 30/16 A2995 RMK A01 T02980164  RH  044%=      5-min Rain = 0
KCA2 141112Z 29005KT 30/16 A2995 RMK A01 T02980164  RH  044%=      5-min Rain = 0
KCA2 141113Z 29005KT 30/16 A2995 RMK A01 T02970164  RH  045%=      5-min Rain = 0
KCA2 141114Z 29004KT 30/16 A2995 RMK A01 T02970164  RH  045%=      5-min Rain = 0
KCA2 141115Z 29004KT 30/16 A2995 RMK A01 T02970163  RH  045%=      5-min Rain = 0
KCA2 141116Z 29004KT 30/16 A2995 RMK A01 T02960163  RH  045%=      5-min Rain = 0
KCA2 141117Z 30005KT 30/16 A2995 RMK A01 T02970160  RH  044%=      5-min Rain = 0
KCA2 141118Z 31004KT 30/16 A2995 RMK A01 T02980160  RH  043%=      5-min Rain = 0
KCA2 141119Z 31005KT 30/16 A2995 RMK A01 T03000159  RH  043%=      5-min Rain = 0
KCA2 141120Z 31004KT 30/16 A2995 RMK A01 T03010158  RH  042%=      5-min Rain = 0
KCA2 141121Z 30006KT 30/16 A2995 RMK A01 T03030158  RH  042%=      5-min Rain = 0
KCA2 141122Z 30006KT 30/16 A2996 RMK A01 T03030158  RH  041%=      5-min Rain = 0
KCA2 141123Z 30007KT 30/16 A2996 RMK A01 T03040158  RH  041%=      5-min Rain = 0
KCA2 141124Z 30009KT 30/16 A2996 RMK A01 T03040157  RH  041%=      5-min Rain = 0
KCA2 141125Z 30007KT 31/16 A2996 RMK A01 T03050157  RH  041%=      5-min Rain = 0
KCA2 141126Z 29007KT 31/16 A2996 RMK A01 T03050157  RH  041%=      5-min Rain = 0
KCA2 141127Z 29008KT 31/16 A2996 RMK A01 T03050157  RH  041%=      5-min Rain = 0
KCA2 141128Z 29007KT 31/16 A2996 RMK A01 T03050157  RH  041%=      5-min Rain = 0
KCA2 141129Z 29006KT 31/16 A2996 RMK A01 T03050157  RH  041%=      5-min Rain = 0
KCA2 141130Z 29006KT 30/16 A2996 RMK A01 T03040157  RH  041%=      5-min Rain = 0
KCA2 141131Z 29006KT 30/16 A2996 RMK A01 T03030157  RH  041%=      5-min Rain = 0
KCA2 141132Z 30006KT 30/16 A2996 RMK A01 T03020158  RH  042%=      5-min Rain = 0
KCA2 141133Z 30007KT 30/16 A2996 RMK A01 T03020157  RH  042%=      5-min Rain = 0
KCA2 141134Z 29007KT 30/16 A2996 RMK A01 T03020157  RH  041%=      5-min Rain = 0
KCA2 141135Z 30007KT 30/16 A2996 RMK A01 T03020157  RH  042%=      5-min Rain = 0
KCA2 141136Z 29007KT 30/16 A2996 RMK A01 T03020157  RH  042%=      5-min Rain = 0
KCA2 141137Z 29007KT 30/16 A2996 RMK A01 T03020157  RH  042%=      5-min Rain = 0
KCA2 141138Z 30008KT 30/16 A2996 RMK A01 T03020157  RH  042%=      5-min Rain = 0
KCA2 141139Z 30008KT 30/16 A2996 RMK A01 T03020157  RH  042%=      5-min Rain = 0
KCA2 141140Z 30008KT 30/16 A2996 RMK A01 T03020157  RH  042%=      5-min Rain = 0
KCA2 141141Z 30008KT 30/16 A2996 RMK A01 T03020157  RH  042%=      5-min Rain = 0
KCA2 141142Z 30008KT 30/16 A2996 RMK A01 T03020157  RH  041%=      5-min Rain = 0
KCA2 141143Z 30010KT 30/16 A2996 RMK A01 T03030157  RH  041%=      5-min Rain = 0
KCA2 141144Z 30008KT 30/16 A2996 RMK A01 T03030156  RH  041%=      5-min Rain = 0
KCA2 141145Z 30008KT 30/16 A2996 RMK A01 T03030156  RH  041%=      5-min Rain = 0
KCA2 141146Z 30007KT 30/16 A2996 RMK A01 T03030156  RH  041%=      5-min Rain = 0
KCA2 141147Z 30008KT 30/16 A2996 RMK A01 T03030156  RH  041%=      5-min Rain = 0
KCA2 141148Z 30007KT 30/16 A2996 RMK A01 T03030156  RH  041%=      5-min Rain = 0
KCA2 141149Z 30008KT 30/16 A2996 RMK A01 T03030156  RH  041%=      5-min Rain = 0
KCA2 141150Z 30008KT 30/16 A2996 RMK A01 T03030156  RH  041%=      5-min Rain = 0
KCA2 141151Z 30008KT 30/16 A2996 RMK A01 T03020156  RH  041%=      5-min Rain = 0
KCA2 141152Z 30008KT 30/16 A2996 RMK A01 T03020155  RH  041%=      5-min Rain = 0
KCA2 141153Z 30008KT 30/16 A2996 RMK A01 T03030155  RH  041%=      5-min Rain = 0
KCA2 141154Z 30008KT 30/16 A2996 RMK A01 T03030155  RH  041%=      5-min Rain = 0
KCA2 141155Z 30007KT 30/16 A2996 RMK A01 T03030156  RH  041%=      5-min Rain = 0
KCA2 141156Z 30007KT 30/16 A2996 RMK A01 T03030156  RH  041%=      5-min Rain = 0
KCA2 141157Z 29007KT 30/16 A2997 RMK A01 T03030156  RH  041%=      5-min Rain = 0
KCA2 141158Z 30008KT 30/16 A2997 RMK A01 T03020156  RH  041%=      5-min Rain = 0
KCA2 141159Z 30008KT 30/16 A2997 RMK A01 T03020156  RH  041%=      5-min Rain = 0
KCA2 141200Z 30009KT 30/16 A2997 RMK A01 T03020156  RH  041%=      5-min Rain = 0
KCA2 141201Z 30009KT 30/16 A2997 RMK A01 T03010156  RH  041%=      5-min Rain = 0
KCA2 141202Z 30009KT 30/16 A2997 RMK A01 T03010156  RH  041%=      5-min Rain = 0
KCA2 141203Z 30008KT 30/16 A2997 RMK A01 T03010156  RH  041%=      5-min Rain = 0
KCA2 141204Z 30009KT 30/16 A2997 RMK A01 T03000155  RH  041%=      5-min Rain = 0
KCA2 141205Z 30009KT 30/16 A2997 RMK A01 T03000155  RH  041%=      5-min Rain = 0
KCA2 141206Z 30009KT 30/15 A2997 RMK A01 T03010154  RH  041%=      5-min Rain = 0
KCA2 141207Z 30007KT 30/15 A2997 RMK A01 T03020154  RH  041%=      5-min Rain = 0
KCA2 141208Z 30008KT 30/15 A2997 RMK A01 T03020154  RH  041%=      5-min Rain = 0
KCA2 141209Z 30008KT 30/15 A2997 RMK A01 T03020154  RH  041%=      5-min Rain = 0
KCA2 141210Z 30009KT 30/15 A2997 RMK A01 T03020154  RH  041%=      5-min Rain = 0
KCA2 141211Z 30009KT 30/15 A2997 RMK A01 T03030153  RH  040%=      5-min Rain = 0
KCA2 141212Z 29008KT 30/15 A2997 RMK A01 T03030153  RH  040%=      5-min Rain = 0
KCA2 141213Z 30008KT 30/15 A2997 RMK A01 T03040154  RH  040%=      5-min Rain = 0
KCA2 141214Z 29008KT 30/15 A2997 RMK A01 T03030153  RH  040%=      5-min Rain = 0
KCA2 141215Z 29007KT 30/15 A2997 RMK A01 T03030154  RH  040%=      5-min Rain = 0
KCA2 141216Z 30007KT 30/15 A2997 RMK A01 T03020154  RH  041%=      5-min Rain = 0
KCA2 141217Z 30007KT 30/15 A2997 RMK A01 T03020154  RH  041%=      5-min Rain = 0
KCA2 141218Z 30006KT 30/15 A2997 RMK A01 T03010154  RH  041%=      5-min Rain = 0
KCA2 141219Z 30006KT 30/15 A2997 RMK A01 T03010154  RH  041%=      5-min Rain = 0
KCA2 141220Z 30006KT 30/15 A2997 RMK A01 T03000154  RH  041%=      5-min Rain = 0
KCA2 141221Z 31006KT 30/15 A2997 RMK A01 T03000153  RH  041%=      5-min Rain = 0
KCA2 141222Z 31007KT 30/15 A2997 RMK A01 T03010153  RH  041%=      5-min Rain = 0
KCA2 141223Z 31006KT 30/15 A2997 RMK A01 T03010154  RH  041%=      5-min Rain = 0
KCA2 141224Z 32005KT 30/15 A2997 RMK A01 T03020154  RH  041%=      5-min Rain = 0
KCA2 141225Z 32006KT 30/15 A2997 RMK A01 T03020154  RH  041%=      5-min Rain = 0
KCA2 141226Z 33006KT 30/15 A2997 RMK A01 T03010154  RH  041%=      5-min Rain = 0
KCA2 141227Z 33005KT 30/15 A2997 RMK A01 T03000154  RH  041%=      5-min Rain = 0
KCA2 141228Z 33006KT 30/15 A2997 RMK A01 T02980154  RH  042%=      5-min Rain = 0
KCA2 141229Z 33006KT 30/15 A2997 RMK A01 T02980154  RH  042%=      5-min Rain = 0
KCA2 141230Z 34005KT 30/15 A2997 RMK A01 T02970154  RH  042%=      5-min Rain = 0
KCA2 141231Z 34005KT 30/16 A2997 RMK A01 T02970155  RH  042%=      5-min Rain = 0
KCA2 141232Z 34006KT 30/16 A2997 RMK A01 T02970155  RH  042%=      5-min Rain = 0
KCA2 141233Z 34005KT 30/15 A2998 RMK A01 T02960154  RH  042%=      5-min Rain = 0
KCA2 141234Z 34005KT 30/16 A2998 RMK A01 T02970155  RH  042%=      5-min Rain = 0
KCA2 141235Z 34005KT 30/15 A2998 RMK A01 T02970154  RH  042%=      5-min Rain = 0
KCA2 141236Z 33005KT 30/15 A2998 RMK A01 T02960154  RH  042%=      5-min Rain = 0
KCA2 141237Z 33005KT 30/15 A2998 RMK A01 T02970154  RH  042%=      5-min Rain = 0
KCA2 141238Z 33005KT 30/15 A2998 RMK A01 T02970154  RH  042%=      5-min Rain = 0
KCA2 141239Z 33005KT 30/15 A2998 RMK A01 T02970154  RH  042%=      5-min Rain = 0
KCA2 141240Z 33005KT 30/15 A2998 RMK A01 T02970154  RH  042%=      5-min Rain = 0
KCA2 141241Z 33005KT 30/15 A2998 RMK A01 T02970153  RH  042%=      5-min Rain = 0
KCA2 141242Z 33005KT 30/15 A2998 RMK A01 T02980153  RH  042%=      5-min Rain = 0
KCA2 141243Z 33005KT 30/15 A2998 RMK A01 T02980153  RH  041%=      5-min Rain = 0
KCA2 141244Z 33004KT 30/15 A2998 RMK A01 T02980153  RH  041%=      5-min Rain = 0
KCA2 141245Z 33004KT 30/15 A2998 RMK A01 T02980154  RH  041%=      5-min Rain = 0
KCA2 141246Z 33004KT 30/15 A2998 RMK A01 T02980153  RH  041%=      5-min Rain = 0
KCA2 141247Z 32004KT 30/15 A2998 RMK A01 T02980153  RH  042%=      5-min Rain = 0
KCA2 141248Z 32005KT 30/15 A2998 RMK A01 T02970153  RH  042%=      5-min Rain = 0
KCA2 141249Z 31005KT 30/15 A2998 RMK A01 T02970153  RH  042%=      5-min Rain = 0
KCA2 141250Z 31005KT 30/15 A2998 RMK A01 T02970154  RH  042%=      5-min Rain = 0
KCA2 141251Z 31004KT 30/15 A2998 RMK A01 T02970154  RH  042%=      5-min Rain = 0
KCA2 141252Z 30005KT 30/15 A2999 RMK A01 T02960154  RH  042%=      5-min Rain = 0
KCA2 141253Z 31006KT 30/15 A2999 RMK A01 T02970154  RH  042%=      5-min Rain = 0
KCA2 141254Z 30005KT 30/15 A2999 RMK A01 T02970154  RH  042%=      5-min Rain = 0
KCA2 141255Z 31006KT 30/15 A2999 RMK A01 T02970153  RH  042%=      5-min Rain = 0
KCA2 141256Z 31007KT 30/15 A2999 RMK A01 T02980153  RH  041%=      5-min Rain = 0
KCA2 141257Z 31007KT 30/15 A2999 RMK A01 T03000153  RH  041%=      5-min Rain = 0
KCA2 141258Z 31006KT 30/15 A2999 RMK A01 T03010153  RH  041%=      5-min Rain = 0
KCA2 141259Z 31006KT 30/15 A2999 RMK A01 T03020153  RH  041%=      5-min Rain = 0
KCA2 141300Z 30006KT 30/15 A2999 RMK A01 T03010153  RH  041%=      5-min Rain = 0
KCA2 141301Z 30007KT 30/15 A2999 RMK A01 T03020153  RH  040%=      5-min Rain = 0
KCA2 141302Z 31006KT 30/15 A2999 RMK A01 T03020153  RH  040%=      5-min Rain = 0
KCA2 141303Z 30008KT 30/15 A2999 RMK A01 T03020152  RH  040%=      5-min Rain = 0
KCA2 141304Z 30007KT 30/15 A2999 RMK A01 T03030152  RH  040%=      5-min Rain = 0
KCA2 141305Z 30007KT 30/15 A2999 RMK A01 T03030153  RH  040%=      5-min Rain = 0
KCA2 141306Z 31007KT 30/15 A2999 RMK A01 T03030153  RH  040%=      5-min Rain = 0
KCA2 141307Z 30007KT 30/15 A2999 RMK A01 T03030153  RH  040%=      5-min Rain = 0
KCA2 141308Z 31008KT 30/15 A2999 RMK A01 T03040153  RH  040%=      5-min Rain = 0
KCA2 141309Z 30007KT 30/15 A2999 RMK A01 T03030153  RH  040%=      5-min Rain = 0
KCA2 141310Z 30009KT 30/15 A2999 RMK A01 T03030153  RH  040%=      5-min Rain = 0
KCA2 141311Z 30008KT 30/15 A2999 RMK A01 T03030153  RH  040%=      5-min Rain = 0
KCA2 141312Z 30007KT 30/15 A2999 RMK A01 T03030153  RH  040%=      5-min Rain = 0
KCA2 141313Z 30007KT 30/15 A2999 RMK A01 T03030154  RH  040%=      5-min Rain = 0
KCA2 141314Z 30007KT 30/15 A2999 RMK A01 T03020154  RH  041%=      5-min Rain = 0
KCA2 141315Z 30007KT 30/15 A2999 RMK A01 T03020154  RH  041%=      5-min Rain = 0
KCA2 141316Z 30006KT 30/15 A2999 RMK A01 T03020154  RH  041%=      5-min Rain = 0
KCA2 141317Z 30008KT 30/15 A2999 RMK A01 T03010154  RH  041%=      5-min Rain = 0
KCA2 141318Z 30008KT 30/15 A2999 RMK A01 T03010154  RH  041%=      5-min Rain = 0
KCA2 141319Z 30008KT 30/16 A2999 RMK A01 T03010155  RH  041%=      5-min Rain = 0
KCA2 141320Z 30008KT 30/16 A2999 RMK A01 T03010155  RH  041%=      5-min Rain = 0
KCA2 141321Z 30008KT 30/16 A2999 RMK A01 T03010155  RH  041%=      5-min Rain = 0
KCA2 141322Z 30007KT 30/16 A2999 RMK A01 T03000155  RH  041%=      5-min Rain = 0
KCA2 141323Z 30007KT 30/16 A2999 RMK A01 T03000155  RH  042%=      5-min Rain = 0
KCA2 141324Z 30007KT 30/16 A2999 RMK A01 T03000155  RH  042%=      5-min Rain = 0
KCA2 141325Z 30008KT 30/16 A2999 RMK A01 T03000156  RH  042%=      5-min Rain = 0
KCA2 141326Z 30008KT 30/16 A30 RMK A01 T03000156  RH  042%=      5-min Rain = 0
KCA2 141327Z 30007KT 30/16 A30 RMK A01 T03000156  RH  042%=      5-min Rain = 0
KCA2 141328Z 31007KT 30/16 A30 RMK A01 T03000156  RH  042%=      5-min Rain = 0
KCA2 141329Z 30007KT 30/16 A30 RMK A01 T03000156  RH  042%=      5-min Rain = 0
KCA2 141330Z 30007KT 30/16 A30 RMK A01 T02990156  RH  042%=      5-min Rain = 0
KCA2 141331Z 30007KT 30/16 A30 RMK A01 T02990156  RH  042%=      5-min Rain = 0
KCA2 141332Z 30007KT 30/16 A30 RMK A01 T02990156  RH  042%=      5-min Rain = 0
KCA2 141333Z 30007KT 30/16 A30 RMK A01 T02990156  RH  042%=      5-min Rain = 0
KCA2 141334Z 30007KT 30/16 A30 RMK A01 T02990156  RH  042%=      5-min Rain = 0
KCA2 141335Z 30008KT 30/16 A30 RMK A01 T02990156  RH  042%=      5-min Rain = 0
KCA2 141336Z 30008KT 30/16 A30 RMK A01 T03000156  RH  042%=      5-min Rain = 0
KCA2 141337Z 30008KT 30/16 A30 RMK A01 T03000155  RH  042%=      5-min Rain = 0
KCA2 141338Z 30009KT 30/16 A30 RMK A01 T03000155  RH  041%=      5-min Rain = 0
KCA2 141339Z 30008KT 30/16 A30 RMK A01 T03000155  RH  041%=      5-min Rain = 0
KCA2 141340Z 30008KT 30/16 A30 RMK A01 T03010155  RH  041%=      5-min Rain = 0
KCA2 141341Z 31008KT 30/15 A30 RMK A01 T03010154  RH  041%=      5-min Rain = 0
KCA2 141342Z 30008KT 30/16 A30 RMK A01 T03010155  RH  041%=      5-min Rain = 0
KCA2 141343Z 30009KT 30/16 A30 RMK A01 T03010155  RH  041%=      5-min Rain = 0
KCA2 141344Z 30008KT 30/16 A30 RMK A01 T03010155  RH  041%=      5-min Rain = 0
KCA2 141345Z 30007KT 30/16 A30 RMK A01 T03010156  RH  041%=      5-min Rain = 0
KCA2 141346Z 30007KT 30/16 A30 RMK A01 T03010156  RH  041%=      5-min Rain = 0
KCA2 141347Z 30008KT 30/16 A30 RMK A01 T03010156  RH  041%=      5-min Rain = 0
KCA2 141348Z 30008KT 30/16 A30 RMK A01 T03010156  RH  041%=      5-min Rain = 0
KCA2 141349Z 30008KT 30/16 A30 RMK A01 T03010156  RH  041%=      5-min Rain = 0
KCA2 141350Z 30006KT 30/16 A30 RMK A01 T03010156  RH  041%=      5-min Rain = 0
KCA2 141351Z 30006KT 30/16 A30 RMK A01 T03010156  RH  041%=      5-min Rain = 0
KCA2 141352Z 30007KT 30/16 A30 RMK A01 T03010156  RH  041%=      5-min Rain = 0
KCA2 141353Z 30006KT 30/16 A30 RMK A01 T03010156  RH  041%=      5-min Rain = 0
KCA2 141354Z 30007KT 30/16 A30 RMK A01 T03020156  RH  041%=      5-min Rain = 0
KCA2 141355Z 29006KT 30/16 A30 RMK A01 T03020156  RH  041%=      5-min Rain = 0
KCA2 141356Z 29006KT 30/16 A30 RMK A01 T03020157  RH  042%=      5-min Rain = 0
KCA2 141357Z 28005KT 30/16 A30 RMK A01 T03010157  RH  042%=      5-min Rain = 0
KCA2 141358Z 29005KT 30/16 A30 RMK A01 T03010158  RH  042%=      5-min Rain = 0
KCA2 141359Z 29006KT 30/16 A3001 RMK A01 T03010158  RH  042%=      5-min Rain = 0
KCA2 141400Z 30006KT 30/16 A3001 RMK A01 T03010158  RH  042%=      5-min Rain = 0
KCA2 141401Z 29005KT 30/16 A3001 RMK A01 T03000159  RH  042%=      5-min Rain = 0
KCA2 141402Z 29005KT 30/16 A3001 RMK A01 T03000159  RH  042%=      5-min Rain = 0
KCA2 141403Z 29006KT 30/16 A3001 RMK A01 T03000159  RH  043%=      5-min Rain = 0
KCA2 141404Z 30006KT 30/16 A3001 RMK A01 T03000159  RH  043%=      5-min Rain = 0
KCA2 141405Z 29007KT 30/16 A3001 RMK A01 T03000159  RH  043%=      5-min Rain = 0
KCA2 141406Z 30007KT 30/16 A3001 RMK A01 T03000159  RH  042%=      5-min Rain = 0
KCA2 141407Z 30007KT 30/16 A3001 RMK A01 T03000158  RH  042%=      5-min Rain = 0
KCA2 141408Z 30007KT 30/16 A3001 RMK A01 T03010158  RH  042%=      5-min Rain = 0
KCA2 141409Z 29007KT 30/16 A3001 RMK A01 T03010158  RH  042%=      5-min Rain = 0
KCA2 141410Z 29008KT 30/16 A3001 RMK A01 T03020158  RH  042%=      5-min Rain = 0
KCA2 141411Z 30007KT 30/16 A3001 RMK A01 T03010158  RH  042%=      5-min Rain = 0
KCA2 141412Z 30006KT 30/16 A3001 RMK A01 T03020159  RH  042%=      5-min Rain = 0
KCA2 141413Z 29006KT 30/16 A3001 RMK A01 T03020159  RH  042%=      5-min Rain = 0
KCA2 141414Z 30005KT 30/16 A3001 RMK A01 T03020159  RH  042%=      5-min Rain = 0
KCA2 141415Z 29005KT 30/16 A3001 RMK A01 T03010159  RH  042%=      5-min Rain = 0
KCA2 141416Z 30006KT 30/16 A3002 RMK A01 T03020159  RH  042%=      5-min Rain = 0
KCA2 141417Z 29004KT 30/16 A3002 RMK A01 T03020159  RH  042%=      5-min Rain = 0
KCA2 141418Z 29005KT 30/16 A3002 RMK A01 T03020160  RH  042%=      5-min Rain = 0
KCA2 141419Z 29005KT 30/16 A3002 RMK A01 T03020160  RH  042%=      5-min Rain = 0
KCA2 141420Z 29005KT 30/16 A3002 RMK A01 T03020161  RH  043%=      5-min Rain = 0
KCA2 141421Z 29005KT 30/16 A3002 RMK A01 T03020161  RH  043%=      5-min Rain = 0
KCA2 141422Z 29005KT 30/16 A3002 RMK A01 T03020162  RH  043%=      5-min Rain = 0
KCA2 141423Z 29005KT 30/16 A3002 RMK A01 T03020161  RH  043%=      5-min Rain = 0
KCA2 141424Z 29007KT 30/16 A3002 RMK A01 T03020160  RH  042%=      5-min Rain = 0
KCA2 141425Z 29005KT 30/16 A3002 RMK A01 T03020160  RH  042%=      5-min Rain = 0
KCA2 141426Z 29005KT 30/16 A3002 RMK A01 T03020160  RH  042%=      5-min Rain = 0
KCA2 141427Z 30006KT 30/16 A3002 RMK A01 T03020160  RH  042%=      5-min Rain = 0
KCA2 141428Z 29006KT 30/16 A3002 RMK A01 T03030160  RH  042%=      5-min Rain = 0
KCA2 141429Z 29005KT 30/16 A3002 RMK A01 T03030160  RH  042%=      5-min Rain = 0
KCA2 141430Z 29005KT 30/16 A3002 RMK A01 T03030160  RH  042%=      5-min Rain = 0
KCA2 141431Z 30004KT 30/16 A3002 RMK A01 T03040161  RH  042%=      5-min Rain = 0
KCA2 141432Z 30005KT 30/16 A3002 RMK A01 T03040161  RH  042%=      5-min Rain = 0
KCA2 141433Z 29005KT 31/16 A3002 RMK A01 T03050162  RH  042%=      5-min Rain = 0
KCA2 141434Z 29005KT 31/16 A3002 RMK A01 T03050161  RH  042%=      5-min Rain = 0
KCA2 141435Z 29005KT 31/16 A3002 RMK A01 T03050162  RH  042%=      5-min Rain = 0
KCA2 141436Z 29005KT 31/16 A3002 RMK A01 T03050162  RH  042%=      5-min Rain = 0
KCA2 141437Z 29006KT 31/16 A3002 RMK A01 T03050163  RH  042%=      5-min Rain = 0
KCA2 141438Z 28005KT 31/16 A3003 RMK A01 T03050163  RH  042%=      5-min Rain = 0
KCA2 141439Z 29006KT 31/16 A3003 RMK A01 T03050163  RH  042%=      5-min Rain = 0
KCA2 141440Z 29005KT 31/16 A3003 RMK A01 T03050163  RH  042%=      5-min Rain = 0
KCA2 141441Z 29004KT 31/16 A3003 RMK A01 T03060162  RH  042%=      5-min Rain = 0
KCA2 141442Z 28005KT 31/16 A3003 RMK A01 T03060163  RH  042%=      5-min Rain = 0
KCA2 141443Z 28006KT 31/16 A3003 RMK A01 T03060163  RH  042%=      5-min Rain = 0
KCA2 141444Z 28005KT 31/16 A3003 RMK A01 T03060164  RH  042%=      5-min Rain = 0
KCA2 141445Z 28005KT 31/16 A3003 RMK A01 T03060164  RH  043%=      5-min Rain = 0
KCA2 141446Z 28005KT 31/17 A3003 RMK A01 T03060165  RH  043%=      5-min Rain = 0
KCA2 141447Z 29005KT 31/17 A3003 RMK A01 T03060165  RH  043%=      5-min Rain = 0
KCA2 141448Z 29004KT 31/17 A3003 RMK A01 T03060165  RH  043%=      5-min Rain = 0
KCA2 141449Z 29005KT 31/17 A3003 RMK A01 T03070166  RH  043%=      5-min Rain = 0
KCA2 141450Z 29004KT 31/17 A3003 RMK A01 T03070166  RH  043%=      5-min Rain = 0
KCA2 141451Z 29005KT 31/17 A3003 RMK A01 T03070166  RH  043%=      5-min Rain = 0
KCA2 141452Z 28006KT 31/17 A3003 RMK A01 T03080166  RH  043%=      5-min Rain = 0
KCA2 141453Z 29006KT 31/17 A3003 RMK A01 T03080167  RH  043%=      5-min Rain = 0
KCA2 141454Z 29006KT 31/17 A3003 RMK A01 T03070167  RH  043%=      5-min Rain = 0
KCA2 141455Z 29006KT 31/17 A3003 RMK A01 T03070167  RH  043%=      5-min Rain = 0
KCA2 141456Z 29007KT 31/17 A3003 RMK A01 T03070167  RH  043%=      5-min Rain = 0
KCA2 141457Z 29006KT 31/17 A3003 RMK A01 T03080167  RH  043%=      5-min Rain = 0
KCA2 141458Z 29006KT 31/17 A3003 RMK A01 T03080168  RH  043%=      5-min Rain = 0
KCA2 141459Z 29005KT 31/17 A3003 RMK A01 T03080168  RH  043%=      5-min Rain = 0
KCA2 141500Z 28007KT 31/17 A3003 RMK A01 T03090168  RH  043%=      5-min Rain = 0
KCA2 141501Z 28007KT 31/17 A3003 RMK A01 T03090168  RH  043%=      5-min Rain = 0
KCA2 141502Z 28006KT 31/17 A3003 RMK A01 T03090168  RH  043%=      5-min Rain = 0
KCA2 141503Z 30006KT 31/17 A3003 RMK A01 T03090168  RH  043%=      5-min Rain = 0
KCA2 141504Z 28005KT 31/17 A3003 RMK A01 T03090169  RH  043%=      5-min Rain = 0
KCA2 141505Z 27005KT 31/17 A3003 RMK A01 T03100170  RH  043%=      5-min Rain = 0
KCA2 141506Z 28005KT 31/17 A3003 RMK A01 T03100170  RH  043%=      5-min Rain = 0
KCA2 141507Z 28005KT 31/17 A3004 RMK A01 T03110170  RH  043%=      5-min Rain = 0
KCA2 141508Z 27006KT 31/17 A3004 RMK A01 T03110170  RH  043%=      5-min Rain = 0
KCA2 141509Z 27006KT 31/17 A3004 RMK A01 T03110170  RH  043%=      5-min Rain = 0
KCA2 141510Z 28006KT 31/17 A3004 RMK A01 T03110171  RH  043%=      5-min Rain = 0
KCA2 141511Z 28006KT 31/17 A3004 RMK A01 T03110172  RH  043%=      5-min Rain = 0
KCA2 141512Z 27007KT 31/17 A3004 RMK A01 T03110172  RH  043%=      5-min Rain = 0
KCA2 141513Z 28006KT 31/17 A3004 RMK A01 T03110172  RH  044%=      5-min Rain = 0
KCA2 141514Z 28006KT 31/17 A3004 RMK A01 T03110173  RH  044%=      5-min Rain = 0
KCA2 141515Z 27006KT 31/17 A3004 RMK A01 T03110173  RH  044%=      5-min Rain = 0
KCA2 141516Z 28006KT 31/17 A3004 RMK A01 T03120174  RH  044%=      5-min Rain = 0
KCA2 141517Z 29005KT 31/18 A3004 RMK A01 T03120175  RH  044%=      5-min Rain = 0
KCA2 141518Z 29007KT 31/18 A3004 RMK A01 T03130175  RH  044%=      5-min Rain = 0
KCA2 141519Z 29006KT 31/18 A3004 RMK A01 T03140175  RH  043%=      5-min Rain = 0
KCA2 141520Z 29007KT 31/17 A3004 RMK A01 T03140174  RH  043%=      5-min Rain = 0
KCA2 141521Z 29007KT 31/17 A3004 RMK A01 T03140172  RH  043%=      5-min Rain = 0
KCA2 141522Z 28007KT 31/17 A3004 RMK A01 T03140172  RH  043%=      5-min Rain = 0
KCA2 141523Z 29007KT 31/17 A3004 RMK A01 T03140172  RH  043%=      5-min Rain = 0
KCA2 141524Z 29007KT 31/17 A3004 RMK A01 T03140173  RH  043%=      5-min Rain = 0
KCA2 141525Z 28006KT 31/17 A3004 RMK A01 T03140173  RH  043%=      5-min Rain = 0
KCA2 141526Z 27006KT 31/18 A3004 RMK A01 T03140175  RH  043%=      5-min Rain = 0
KCA2 141527Z 28007KT 31/18 A3004 RMK A01 T03140175  RH  043%=      5-min Rain = 0
KCA2 141528Z 27007KT 31/18 A3004 RMK A01 T03140175  RH  043%=      5-min Rain = 0
KCA2 141529Z 27008KT 31/18 A3004 RMK A01 T03130175  RH  044%=      5-min Rain = 0
KCA2 141530Z 27008KT 31/18 A3004 RMK A01 T03130175  RH  044%=      5-min Rain = 0
KCA2 141531Z 28007KT 31/18 A3004 RMK A01 T03130175  RH  044%=      5-min Rain = 0
KCA2 141532Z 28008KT 31/18 A3004 RMK A01 T03130175  RH  044%=      5-min Rain = 0
KCA2 141533Z 28009KT 31/17 A3004 RMK A01 T03130174  RH  043%=      5-min Rain = 0
KCA2 141534Z 27008KT 31/17 A3004 RMK A01 T03130174  RH  043%=      5-min Rain = 0
KCA2 141535Z 28008KT 31/17 A3004 RMK A01 T03130174  RH  044%=      5-min Rain = 0
KCA2 141536Z 27008KT 31/17 A3004 RMK A01 T03130174  RH  043%=      5-min Rain = 0
KCA2 141537Z 27008KT 31/17 A3004 RMK A01 T03130174  RH  043%=      5-min Rain = 0
KCA2 141538Z 27007KT 31/17 A3004 RMK A01 T03140174  RH  043%=      5-min Rain = 0
KCA2 141539Z 28007KT 32/17 A3004 RMK A01 T03150174  RH  043%=      5-min Rain = 0
KCA2 141540Z 27008KT 32/17 A3005 RMK A01 T03150174  RH  043%=      5-min Rain = 0
KCA2 141541Z 27008KT 32/17 A3005 RMK A01 T03160174  RH  043%=      5-min Rain = 0
KCA2 141542Z 28008KT 32/17 A3005 RMK A01 T03160174  RH  043%=      5-min Rain = 0
KCA2 141543Z 28007KT 32/18 A3005 RMK A01 T03170175  RH  043%=      5-min Rain = 0
KCA2 141544Z 27007KT 32/17 A3005 RMK A01 T03170174  RH  042%=      5-min Rain = 0
KCA2 141545Z 28008KT 32/17 A3005 RMK A01 T03170174  RH  043%=      5-min Rain = 0
KCA2 141546Z 28008KT 32/18 A3005 RMK A01 T03170175  RH  043%=      5-min Rain = 0
KCA2 141547Z 28008KT 32/17 A3005 RMK A01 T03170174  RH  042%=      5-min Rain = 0
KCA2 141548Z 28007KT 32/18 A3005 RMK A01 T03170175  RH  043%=      5-min Rain = 0
KCA2 141549Z 28009KT 32/17 A3005 RMK A01 T03180174  RH  042%=      5-min Rain = 0
KCA2 141550Z 28009KT 32/17 A3005 RMK A01 T03190174  RH  042%=      5-min Rain = 0
KCA2 141551Z 28008KT 32/17 A3005 RMK A01 T03190173  RH  042%=      5-min Rain = 0
KCA2 141552Z 28008KT 32/17 A3005 RMK A01 T03180173  RH  042%=      5-min Rain = 0
KCA2 141553Z 29008KT 32/17 A3005 RMK A01 T03180174  RH  042%=      5-min Rain = 0
KCA2 141554Z 29008KT 32/17 A3005 RMK A01 T03190173  RH  042%=      5-min Rain = 0
KCA2 141555Z 28008KT 32/17 A3005 RMK A01 T03200173  RH  042%=      5-min Rain = 0
KCA2 141556Z 29008KT 32/17 A3005 RMK A01 T03200174  RH  042%=      5-min Rain = 0
KCA2 141557Z 28008KT 32/17 A3005 RMK A01 T03190174  RH  042%=      5-min Rain = 0
KCA2 141558Z 29008KT 32/17 A3005 RMK A01 T03200174  RH  042%=      5-min Rain = 0
KCA2 141559Z 29008KT 32/17 A3005 RMK A01 T03210174  RH  042%=      5-min Rain = 0
KCA2 141600Z 29007KT 32/17 A3005 RMK A01 T03210174  RH  042%=      5-min Rain = 0
KCA2 141601Z 28008KT 32/18 A3005 RMK A01 T03220175  RH  042%=      5-min Rain = 0
KCA2 141602Z 27008KT 32/17 A3005 RMK A01 T03220174  RH  041%=      5-min Rain = 0
KCA2 141603Z 27008KT 32/18 A3005 RMK A01 T03220175  RH  042%=      5-min Rain = 0
KCA2 141604Z 27009KT 32/18 A3005 RMK A01 T03220175  RH  042%=      5-min Rain = 0
KCA2 141605Z 27009KT 32/18 A3005 RMK A01 T03220175  RH  042%=      5-min Rain = 0
KCA2 141606Z 28009KT 32/18 A3005 RMK A01 T03220175  RH  042%=      5-min Rain = 0
KCA2 141607Z 29009KT 32/18 A3005 RMK A01 T03210176  RH  042%=      5-min Rain = 0
KCA2 141608Z 27010KT 32/18 A3005 RMK A01 T03220176  RH  042%=      5-min Rain = 0
KCA2 141609Z 28010KT 32/18 A3005 RMK A01 T03210176  RH  042%=      5-min Rain = 0
KCA2 141610Z 28009KT 32/18 A3005 RMK A01 T03210176  RH  042%=      5-min Rain = 0
KCA2 141611Z 27008KT 32/18 A3005 RMK A01 T03210176  RH  042%=      5-min Rain = 0
KCA2 141612Z 27007KT 32/18 A3005 RMK A01 T03220176  RH  042%=      5-min Rain = 0
KCA2 141613Z 29007KT 33/18 A3005 RMK A01 T03250178  RH  041%=      5-min Rain = 0
KCA2 141614Z 29008KT 33/18 A3005 RMK A01 T03270177  RH  041%=      5-min Rain = 0
KCA2 141615Z 28007KT 33/18 A3005 RMK A01 T03280176  RH  040%=      5-min Rain = 0
KCA2 141616Z 28007KT 33/18 A3005 RMK A01 T03280177  RH  041%=      5-min Rain = 0
KCA2 141617Z 29007KT 33/18 A3005 RMK A01 T03300178  RH  040%=      5-min Rain = 0
KCA2 141618Z 28008KT 33/18 A3005 RMK A01 T03320178  RH  040%=      5-min Rain = 0
KCA2 141619Z 27007KT 33/18 A3005 RMK A01 T03330177  RH  040%=      5-min Rain = 0
KCA2 141620Z 27007KT 33/18 A3005 RMK A01 T03340176  RH  039%=      5-min Rain = 0
KCA2 141621Z 27007KT 34/18 A3005 RMK A01 T03360177  RH  039%=      5-min Rain = 0
KCA2 141622Z 28007KT 34/18 A3005 RMK A01 T03410179  RH  038%=      5-min Rain = 0
KCA2 141623Z 27009KT 35/18 A3005 RMK A01 T03450177  RH  037%=      5-min Rain = 0
KCA2 141624Z 27008KT 34/18 A3005 RMK A01 T03430175  RH  037%=      5-min Rain = 0
KCA2 141625Z 26007KT 34/18 A3005 RMK A01 T03410176  RH  038%=      5-min Rain = 0
KCA2 141626Z 27008KT 34/18 A3005 RMK A01 T03420175  RH  037%=      5-min Rain = 0
KCA2 141627Z 27008KT 34/17 A3005 RMK A01 T03410173  RH  037%=      5-min Rain = 0
KCA2 141628Z 26007KT 34/17 A3005 RMK A01 T03420170  RH  036%=      5-min Rain = 0
KCA2 141629Z 26007KT 35/18 A3005 RMK A01 T03450177  RH  037%=      5-min Rain = 0
KCA2 141630Z 27006KT 35/17 A3005 RMK A01 T03470169  RH  035%=      5-min Rain = 0
KCA2 141631Z 26009KT 34/17 A3005 RMK A01 T03420171  RH  036%=      5-min Rain = 0
KCA2 141632Z 25007KT 34/17 A3005 RMK A01 T03410174  RH  037%=      5-min Rain = 0
KCA2 141633Z 26008KT 34/18 A3005 RMK A01 T03430176  RH  037%=      5-min Rain = 0
KCA2 141634Z 25007KT 35/17 A3005 RMK A01 T03460173  RH  036%=      5-min Rain = 0
KCA2 141635Z 25010KT 34/17 A3005 RMK A01 T03440173  RH  036%=      5-min Rain = 0
KCA2 141636Z 30008KT 34/17 A3005 RMK A01 T03430171  RH  036%=      5-min Rain = 0
KCA2 141637Z 32005KT 35/17 A3005 RMK A01 T03450167  RH  035%=      5-min Rain = 0
KCA2 141638Z 29008KT 35/17 A3005 RMK A01 T03510167  RH  033%=      5-min Rain = 0
KCA2 141639Z 28009KT 35/16 A3005 RMK A01 T03530163  RH  032%=      5-min Rain = 0
KCA2 141640Z 27008KT 35/16 A3005 RMK A01 T03490162  RH  033%=      5-min Rain = 0
KCA2 141641Z 27008KT 35/16 A3005 RMK A01 T03490162  RH  033%=      5-min Rain = 0
KCA2 141642Z 28007KT 35/17 A3005 RMK A01 T03530166  RH  033%=      5-min Rain = 0
KCA2 141643Z 28007KT 35/17 A3005 RMK A01 T03530167  RH  033%=      5-min Rain = 0
KCA2 141644Z 29006KT 35/17 A3005 RMK A01 T03510166  RH  033%=      5-min Rain = 0
KCA2 141645Z 29005KT 35/17 A3005 RMK A01 T03490167  RH  034%=      5-min Rain = 0
KCA2 141646Z 28003KT 35/17 A3005 RMK A01 T03480166  RH  034%=      5-min Rain = 0
KCA2 141647Z 26005KT 35/17 A3005 RMK A01 T03460168  RH  035%=      5-min Rain = 0
KCA2 141648Z 26004KT 35/17 A3005 RMK A01 T03480171  RH  035%=      5-min Rain = 0
KCA2 141649Z 27005KT 35/17 A3005 RMK A01 T03520174  RH  035%=      5-min Rain = 0
KCA2 141650Z 31006KT 35/16 A3005 RMK A01 T03520164  RH  033%=      5-min Rain = 0
KCA2 141651Z 31007KT 35/16 A3005 RMK A01 T03490162  RH  033%=      5-min Rain = 0
KCA2 141652Z 31009KT 35/16 A3005 RMK A01 T03490162  RH  033%=      5-min Rain = 0
KCA2 141653Z 32008KT 35/16 A3005 RMK A01 T03500163  RH  033%=      5-min Rain = 0
KCA2 141654Z 33006KT 36/16 A3005 RMK A01 T03550163  RH  032%=      5-min Rain = 0
KCA2 141655Z 33006KT 35/16 A3005 RMK A01 T03530161  RH  032%=      5-min Rain = 0
KCA2 141656Z 34005KT 35/16 A3005 RMK A01 T03500160  RH  032%=      5-min Rain = 0
KCA2 141657Z 00003KT 35/16 A3005 RMK A01 T03470160  RH  033%=      5-min Rain = 0
KCA2 141658Z 33005KT 35/16 A3005 RMK A01 T03480162  RH  033%=      5-min Rain = 0
KCA2 141659Z 32004KT 35/16 A3005 RMK A01 T03490161  RH  033%=      5-min Rain = 0
KCA2 141700Z 34005KT 35/16 A3005 RMK A01 T03480160  RH  033%=      5-min Rain = 0
KCA2 141701Z 34002KT 35/16 A3005 RMK A01 T03490160  RH  033%=      5-min Rain = 0
KCA2 141702Z 33003KT 35/16 A3005 RMK A01 T03490160  RH  032%=      5-min Rain = 0
KCA2 141703Z 22001KT 35/16 A3005 RMK A01 T03500160  RH  032%=      5-min Rain = 0
KCA2 141704Z 01002KT 35/16 A3005 RMK A01 T03480159  RH  032%=      5-min Rain = 0
KCA2 141705Z 35006KT 35/16 A3005 RMK A01 T03500162  RH  033%=      5-min Rain = 0
KCA2 141706Z 32006KT 36/16 A3005 RMK A01 T03550161  RH  032%=      5-min Rain = 0
KCA2 141707Z 30005KT 36/16 A3005 RMK A01 T03550160  RH  031%=      5-min Rain = 0
KCA2 141708Z 30004KT 35/16 A3005 RMK A01 T03530160  RH  032%=      5-min Rain = 0
KCA2 141709Z 29004KT 35/16 A3005 RMK A01 T03530161  RH  032%=      5-min Rain = 0
KCA2 141710Z 29006KT 35/16 A3005 RMK A01 T03520161  RH  032%=      5-min Rain = 0
KCA2 141711Z 33008KT 35/16 A3005 RMK A01 T03520163  RH  032%=      5-min Rain = 0
KCA2 141712Z 33008KT 35/16 A3005 RMK A01 T03520162  RH  032%=      5-min Rain = 0
KCA2 141713Z 32007KT 35/16 A3005 RMK A01 T03510162  RH  033%=      5-min Rain = 0
KCA2 141714Z 30007KT 35/16 A3005 RMK A01 T03530162  RH  032%=      5-min Rain = 0
KCA2 141715Z 29005KT 35/16 A3005 RMK A01 T03540162  RH  032%=      5-min Rain = 0
KCA2 141716Z 24004KT 36/16 A3005 RMK A01 T03550162  RH  032%=      5-min Rain = 0
KCA2 141717Z 26005KT 36/16 A3005 RMK A01 T03560162  RH  032%=      5-min Rain = 0
KCA2 141718Z 31007KT 36/16 A3005 RMK A01 T03580162  RH  031%=      5-min Rain = 0
KCA2 141719Z 31004KT 36/16 A3005 RMK A01 T03600162  RH  031%=      5-min Rain = 0
KCA2 141720Z 33003KT 36/16 A3005 RMK A01 T03600160  RH  030%=      5-min Rain = 0
KCA2 141721Z 33003KT 36/16 A3005 RMK A01 T03590160  RH  031%=      5-min Rain = 0
KCA2 141722Z 30003KT 36/16 A3005 RMK A01 T03610161  RH  031%=      5-min Rain = 0
KCA2 141723Z 28007KT 36/16 A3005 RMK A01 T03630162  RH  031%=      5-min Rain = 0
KCA2 141724Z 31007KT 36/16 A3004 RMK A01 T03610163  RH  031%=      5-min Rain = 0
KCA2 141725Z 33007KT 36/16 A3005 RMK A01 T03610162  RH  031%=      5-min Rain = 0
KCA2 141726Z 34007KT 36/16 A3005 RMK A01 T03600162  RH  031%=      5-min Rain = 0
KCA2 141727Z 33004KT 36/16 A3004 RMK A01 T03550160  RH  031%=      5-min Rain = 0
KCA2 141728Z 31006KT 35/16 A3004 RMK A01 T03530160  RH  032%=      5-min Rain = 0
KCA2 141729Z 32009KT 35/16 A3004 RMK A01 T03540160  RH  032%=      5-min Rain = 0
KCA2 141730Z 33009KT 36/16 A3004 RMK A01 T03570159  RH  031%=      5-min Rain = 0
KCA2 141731Z 31007KT 36/16 A3004 RMK A01 T03570159  RH  031%=      5-min Rain = 0
KCA2 141732Z 31010KT 36/16 A3004 RMK A01 T03590162  RH  031%=      5-min Rain = 0
KCA2 141733Z 30009KT 36/17 A3004 RMK A01 T03620166  RH  031%=      5-min Rain = 0
KCA2 141734Z 30009KT 36/17 A3004 RMK A01 T03620165  RH  031%=      5-min Rain = 0
KCA2 141735Z 29005KT 36/16 A3004 RMK A01 T03580163  RH  031%=      5-min Rain = 0
KCA2 141736Z 30006KT 35/16 A3004 RMK A01 T03540162  RH  032%=      5-min Rain = 0
KCA2 141737Z 29004KT 36/16 A3004 RMK A01 T03550162  RH  032%=      5-min Rain = 0
KCA2 141738Z 31003KT 36/16 A3004 RMK A01 T03560163  RH  032%=      5-min Rain = 0
KCA2 141739Z 34007KT 36/16 A3004 RMK A01 T03570163  RH  032%=      5-min Rain = 0
KCA2 141740Z 34007KT 36/16 A3004 RMK A01 T03580164  RH  032%=      5-min Rain = 0
KCA2 141741Z 32005KT 36/17 A3004 RMK A01 T03600166  RH  032%=      5-min Rain = 0
KCA2 141742Z 31010KT 36/17 A3004 RMK A01 T03630169  RH  032%=      5-min Rain = 0
KCA2 141743Z 31007KT 36/17 A3004 RMK A01 T03620168  RH  032%=      5-min Rain = 0
KCA2 141744Z 31007G14KT 36/17 A3004 RMK A01 T03630170  RH  032%=      5-min Rain = 0
KCA2 141745Z 32010KT 36/17 A3004 RMK A01 T03630169  RH  032%=      5-min Rain = 0
KCA2 141746Z 33009KT 36/17 A3004 RMK A01 T03620169  RH  032%=      5-min Rain = 0
KCA2 141747Z 32010KT 36/17 A3004 RMK A01 T03620168  RH  032%=      5-min Rain = 0
KCA2 141748Z 29008KT 36/17 A3004 RMK A01 T03610167  RH  032%=      5-min Rain = 0
KCA2 141749Z 27008KT 36/17 A3004 RMK A01 T03600167  RH  032%=      5-min Rain = 0
KCA2 141750Z 29008KT 36/17 A3004 RMK A01 T03600165  RH  032%=      5-min Rain = 0
KCA2 141751Z 31008KT 36/16 A3004 RMK A01 T03590164  RH  031%=      5-min Rain = 0
KCA2 141752Z 30007KT 36/17 A3004 RMK A01 T03590165  RH  032%=      5-min Rain = 0
KCA2 141753Z 29006KT 36/17 A3003 RMK A01 T03570165  RH  032%=      5-min Rain = 0
KCA2 141754Z 29010KT 36/17 A3003 RMK A01 T03590167  RH  032%=      5-min Rain = 0
KCA2 141755Z 29008KT 36/17 A3003 RMK A01 T03630166  RH  031%=      5-min Rain = 0
KCA2 141756Z 29005KT 37/17 A3003 RMK A01 T03650165  RH  031%=      5-min Rain = 0
KCA2 141757Z 28006KT 36/16 A3003 RMK A01 T03630163  RH  031%=      5-min Rain = 0
KCA2 141758Z 29011KT 36/16 A3003 RMK A01 T03610163  RH  031%=      5-min Rain = 0
KCA2 141759Z 30009KT 36/16 A3003 RMK A01 T03640162  RH  030%=      5-min Rain = 0
KCA2 141800Z 28007KT 36/16 A3003 RMK A01 T03630162  RH  030%=      5-min Rain = 0
KCA2 141801Z 30008KT 37/16 A3003 RMK A01 T03670164  RH  030%=      5-min Rain = 0
KCA2 141802Z 30010KT 37/16 A3003 RMK A01 T03680162  RH  030%=      5-min Rain = 0
KCA2 141803Z 28009KT 37/16 A3003 RMK A01 T03670160  RH  029%=      5-min Rain = 0
KCA2 141804Z 28008KT 36/16 A3003 RMK A01 T03620159  RH  030%=      5-min Rain = 0
KCA2 141805Z 27007KT 36/16 A3003 RMK A01 T03640160  RH  030%=      5-min Rain = 0
KCA2 141806Z 28005KT 36/16 A3003 RMK A01 T03640159  RH  030%=      5-min Rain = 0
KCA2 141807Z 28007KT 37/16 A3003 RMK A01 T03660160  RH  030%=      5-min Rain = 0
KCA2 141808Z 27009KT 37/16 A3003 RMK A01 T03690159  RH  029%=      5-min Rain = 0
KCA2 141809Z 28007KT 37/16 A3003 RMK A01 T03650156  RH  029%=      5-min Rain = 0
KCA2 141810Z 28007KT 36/16 A3003 RMK A01 T03610156  RH  030%=      5-min Rain = 0
KCA2 141811Z 28009KT 36/16 A3002 RMK A01 T03610158  RH  030%=      5-min Rain = 0
KCA2 141812Z 28009KT 36/16 A3002 RMK A01 T03620157  RH  030%=      5-min Rain = 0
KCA2 141813Z 27009KT 36/16 A3002 RMK A01 T03580155  RH  030%=      5-min Rain = 0
KCA2 141814Z 28008KT 36/16 A3002 RMK A01 T03560156  RH  030%=      5-min Rain = 0
KCA2 141815Z 28008KT 36/16 A3002 RMK A01 T03550155  RH  030%=      5-min Rain = 0
KCA2 141816Z 29008KT 36/16 A3002 RMK A01 T03560156  RH  030%=      5-min Rain = 0
KCA2 141817Z 28008KT 36/15 A3002 RMK A01 T03580154  RH  030%=      5-min Rain = 0
KCA2 141818Z 31005KT 36/15 A3002 RMK A01 T03570154  RH  030%=      5-min Rain = 0
KCA2 141819Z 32006KT 36/15 A3002 RMK A01 T03580153  RH  029%=      5-min Rain = 0
KCA2 141820Z 31006KT 36/15 A3003 RMK A01 T03600153  RH  029%=      5-min Rain = 0
KCA2 141821Z 31004KT 36/15 A3002 RMK A01 T03580150  RH  029%=      5-min Rain = 0
KCA2 141822Z 33005KT 36/15 A3002 RMK A01 T03580150  RH  029%=      5-min Rain = 0
KCA2 141823Z 33005KT 36/15 A3002 RMK A01 T03600150  RH  029%=      5-min Rain = 0
KCA2 141824Z 34007KT 36/15 A3002 RMK A01 T03620152  RH  029%=      5-min Rain = 0
KCA2 141825Z 32007KT 36/15 A3002 RMK A01 T03620152  RH  029%=      5-min Rain = 0
KCA2 141826Z 33008KT 36/15 A3002 RMK A01 T03630152  RH  029%=      5-min Rain = 0
KCA2 141827Z 33007KT 36/15 A3002 RMK A01 T03610151  RH  029%=      5-min Rain = 0
KCA2 141828Z 33006KT 36/15 A3002 RMK A01 T03600152  RH  029%=      5-min Rain = 0
KCA2 141829Z 32007KT 36/15 A3002 RMK A01 T03620153  RH  029%=      5-min Rain = 0
KCA2 141830Z 31008KT 36/15 A3002 RMK A01 T03640152  RH  028%=      5-min Rain = 0
KCA2 141831Z 31009KT 37/15 A3002 RMK A01 T03650150  RH  028%=      5-min Rain = 0
KCA2 141832Z 30007KT 36/15 A3002 RMK A01 T03610149  RH  028%=      5-min Rain = 0
KCA2 141833Z 31010KT 36/15 A3002 RMK A01 T03610150  RH  028%=      5-min Rain = 0
KCA2 141834Z 31008KT 36/15 A3002 RMK A01 T03610149  RH  028%=      5-min Rain = 0
KCA2 141835Z 31009KT 36/15 A3002 RMK A01 T03620149  RH  028%=      5-min Rain = 0
KCA2 141836Z 32009KT 36/15 A3002 RMK A01 T03630149  RH  028%=      5-min Rain = 0
KCA2 141837Z 33009KT 36/15 A3002 RMK A01 T03640148  RH  028%=      5-min Rain = 0
KCA2 141838Z 32008KT 36/15 A3002 RMK A01 T03640147  RH  028%=      5-min Rain = 0
KCA2 141839Z 30006KT 37/15 A3002 RMK A01 T03650148  RH  027%=      5-min Rain = 0
KCA2 141840Z 31008KT 37/15 A3002 RMK A01 T03680148  RH  027%=      5-min Rain = 0
KCA2 141841Z 32007KT 37/15 A3002 RMK A01 T03690148  RH  027%=      5-min Rain = 0
KCA2 141842Z 31007KT 37/15 A3002 RMK A01 T03660146  RH  027%=      5-min Rain = 0
KCA2 141843Z 30005KT 37/15 A3002 RMK A01 T03660147  RH  027%=      5-min Rain = 0
KCA2 141844Z 30003KT 37/15 A3002 RMK A01 T03680147  RH  027%=      5-min Rain = 0
KCA2 141845Z 34003KT 37/15 A3001 RMK A01 T03710148  RH  027%=      5-min Rain = 0
KCA2 141846Z 33003KT 38/15 A3001 RMK A01 T03750148  RH  026%=      5-min Rain = 0
KCA2 141847Z 29006KT 38/15 A3001 RMK A01 T03770148  RH  026%=      5-min Rain = 0
KCA2 141848Z 29008KT 38/15 A3001 RMK A01 T03770150  RH  026%=      5-min Rain = 0
KCA2 141849Z 28008KT 38/15 A3001 RMK A01 T03750148  RH  026%=      5-min Rain = 0
KCA2 141850Z 27007KT 37/15 A3001 RMK A01 T03700146  RH  026%=      5-min Rain = 0
KCA2 141851Z 29009KT 37/15 A3001 RMK A01 T03690148  RH  027%=      5-min Rain = 0
KCA2 141852Z 29008KT 38/15 A3001 RMK A01 T03750145  RH  026%=      5-min Rain = 0
KCA2 141853Z 30004KT 37/14 A3001 RMK A01 T03740141  RH  025%=      5-min Rain = 0
KCA2 141854Z 28003KT 37/14 A3001 RMK A01 T03720138  RH  025%=      5-min Rain = 0
KCA2 141855Z 32006G11KT 37/14 A3001 RMK A01 T03720142  RH  025%=      5-min Rain = 0
KCA2 141856Z 34007KT 37/14 A3001 RMK A01 T03720143  RH  026%=      5-min Rain = 0
KCA2 141857Z 33003G9KT 37/14 A3001 RMK A01 T03720142  RH  025%=      5-min Rain = 0
KCA2 141858Z 32008KT 38/14 A3001 RMK A01 T03760144  RH  025%=      5-min Rain = 0
KCA2 141859Z 33010KT 38/14 A3001 RMK A01 T03790144  RH  025%=      5-min Rain = 0
KCA2 141900Z 33006G11KT 38/15 A3001 RMK A01 T03810147  RH  025%=      5-min Rain = 0
KCA2 141901Z 33004KT 38/15 A3001 RMK A01 T03830148  RH  025%=      5-min Rain = 0
KCA2 141902Z 29004KT 39/15 A30 RMK A01 T03880150  RH  025%=      5-min Rain = 0
KCA2 141903Z 28004KT 39/15 A30 RMK A01 T03860148  RH  025%=      5-min Rain = 0
KCA2 141904Z 27004KT 38/15 A30 RMK A01 T03830147  RH  025%=      5-min Rain = 0
KCA2 141905Z 23009KT 38/15 A30 RMK A01 T03830147  RH  025%=      5-min Rain = 0
KCA2 141906Z 25006G11KT 38/15 A30 RMK A01 T03820146  RH  025%=      5-min Rain = 0
KCA2 141907Z 26005KT 38/15 A30 RMK A01 T03800147  RH  025%=      5-min Rain = 0
KCA2 141908Z 30007KT 38/15 A30 RMK A01 T03800147  RH  025%=      5-min Rain = 0
KCA2 141909Z 31009KT 38/15 A30 RMK A01 T03810149  RH  025%=      5-min Rain = 0
KCA2 141910Z 32010KT 38/15 A30 RMK A01 T03790150  RH  026%=      5-min Rain = 0
KCA2 141911Z 30007KT 37/15 A30 RMK A01 T03730149  RH  027%=      5-min Rain = 0
KCA2 141912Z 30010KT 37/15 A30 RMK A01 T03730151  RH  027%=      5-min Rain = 0
KCA2 141913Z 30008KT 38/15 A30 RMK A01 T03750151  RH  027%=      5-min Rain = 0
KCA2 141914Z 29006KT 38/15 A30 RMK A01 T03750151  RH  027%=      5-min Rain = 0
KCA2 141915Z 29006KT 37/15 A30 RMK A01 T03740151  RH  027%=      5-min Rain = 0
KCA2 141916Z 30004KT 37/15 A30 RMK A01 T03730151  RH  027%=      5-min Rain = 0
KCA2 141917Z 30005KT 37/15 A30 RMK A01 T03720151  RH  027%=      5-min Rain = 0
KCA2 141918Z 32006KT 37/15 A30 RMK A01 T03710151  RH  027%=      5-min Rain = 0
KCA2 141919Z 31004KT 37/15 A30 RMK A01 T03710152  RH  027%=      5-min Rain = 0
KCA2 141920Z 30005KT 37/15 A30 RMK A01 T03710153  RH  027%=      5-min Rain = 0
KCA2 141921Z 29008KT 37/15 A30 RMK A01 T03710153  RH  027%=      5-min Rain = 0
KCA2 141922Z 32009KT 37/16 A30 RMK A01 T03720155  RH  028%=      5-min Rain = 0
KCA2 141923Z 34010KT 37/16 A30 RMK A01 T03720155  RH  028%=      5-min Rain = 0
KCA2 141924Z 31009KT 37/16 A30 RMK A01 T03730155  RH  028%=      5-min Rain = 0
KCA2 141925Z 31009KT 37/16 A2999 RMK A01 T03740156  RH  028%=      5-min Rain = 0
KCA2 141926Z 30011KT 37/16 A2999 RMK A01 T03740156  RH  028%=      5-min Rain = 0
KCA2 141927Z 30007KT 37/16 A2999 RMK A01 T03740155  RH  027%=      5-min Rain = 0
KCA2 141928Z 31005KT 37/16 A2999 RMK A01 T03720155  RH  028%=      5-min Rain = 0
KCA2 141929Z 33005KT 37/16 A2999 RMK A01 T03740156  RH  028%=      5-min Rain = 0
KCA2 141930Z 32006KT 38/16 A2999 RMK A01 T03750156  RH  027%=      5-min Rain = 0
KCA2 141931Z 29005KT 38/16 A2999 RMK A01 T03780158  RH  027%=      5-min Rain = 0
KCA2 141932Z 31007KT 38/16 A2999 RMK A01 T03800157  RH  027%=      5-min Rain = 0
KCA2 141933Z 33010KT 38/16 A2999 RMK A01 T03800155  RH  027%=      5-min Rain = 0
KCA2 141934Z 33009KT 38/15 A2999 RMK A01 T03770153  RH  027%=      5-min Rain = 0
KCA2 141935Z 30006KT 38/15 A2999 RMK A01 T03750153  RH  027%=      5-min Rain = 0
KCA2 141936Z 29007KT 37/15 A2998 RMK A01 T03730153  RH  027%=      5-min Rain = 0
KCA2 141937Z 28006KT 37/15 A2998 RMK A01 T03720153  RH  027%=      5-min Rain = 0
KCA2 141938Z 30008KT 37/15 A2998 RMK A01 T03710154  RH  028%=      5-min Rain = 0
KCA2 141939Z 31009KT 37/15 A2998 RMK A01 T03710154  RH  028%=      5-min Rain = 0
KCA2 141940Z 29007KT 37/15 A2998 RMK A01 T03710153  RH  027%=      5-min Rain = 0
KCA2 141941Z 32004KT 37/15 A2998 RMK A01 T03680152  RH  028%=      5-min Rain = 0
KCA2 141942Z 33004KT 37/15 A2998 RMK A01 T03680153  RH  028%=      5-min Rain = 0
KCA2 141943Z 34003KT 37/15 A2998 RMK A01 T03680152  RH  028%=      5-min Rain = 0
KCA2 141944Z 36005KT 37/15 A2998 RMK A01 T03710153  RH  028%=      5-min Rain = 0
KCA2 141945Z 34006KT 38/15 A2998 RMK A01 T03760154  RH  027%=      5-min Rain = 0
KCA2 141946Z 33008KT 38/15 A2997 RMK A01 T03780154  RH  027%=      5-min Rain = 0
KCA2 141947Z 31009KT 38/15 A2997 RMK A01 T03780153  RH  027%=      5-min Rain = 0
KCA2 141948Z 29010KT 38/15 A2997 RMK A01 T03770152  RH  027%=      5-min Rain = 0
KCA2 141949Z 28011KT 38/15 A2997 RMK A01 T03770153  RH  027%=      5-min Rain = 0
KCA2 141950Z 29010KT 38/15 A2997 RMK A01 T03750153  RH  027%=      5-min Rain = 0
KCA2 141951Z 30009KT 37/15 A2997 RMK A01 T03740153  RH  027%=      5-min Rain = 0
KCA2 141952Z 29007KT 37/15 A2997 RMK A01 T03730152  RH  027%=      5-min Rain = 0
KCA2 141953Z 30003KT 37/15 A2997 RMK A01 T03700152  RH  027%=      5-min Rain = 0
KCA2 141954Z 34003KT 37/15 A2997 RMK A01 T03690152  RH  028%=      5-min Rain = 0
KCA2 141955Z 32006KT 37/15 A2997 RMK A01 T03700152  RH  028%=      5-min Rain = 0
KCA2 141956Z 30005KT 37/15 A2997 RMK A01 T03710152  RH  027%=      5-min Rain = 0
KCA2 141957Z 28002KT 37/15 A2997 RMK A01 T03710152  RH  027%=      5-min Rain = 0
KCA2 141958Z 29001KT 37/15 A2997 RMK A01 T03720152  RH  027%=      5-min Rain = 0
KCA2 141959Z 30002KT 37/15 A2997 RMK A01 T03730152  RH  027%=      5-min Rain = 0
KCA2 142000Z 32005KT 37/15 A2997 RMK A01 T03740153  RH  027%=      5-min Rain = 0
KCA2 142001Z 35004KT 37/15 A2997 RMK A01 T03740153  RH  027%=      5-min Rain = 0
KCA2 142002Z 31003KT 38/15 A2997 RMK A01 T03760154  RH  027%=      5-min Rain = 0
KCA2 142003Z 00002KT 38/15 A2997 RMK A01 T03780154  RH  027%=      5-min Rain = 0
KCA2 142004Z 34002KT 38/15 A2997 RMK A01 T03790154  RH  026%=      5-min Rain = 0
KCA2 142005Z 32005KT 38/15 A2997 RMK A01 T03790153  RH  026%=      5-min Rain = 0
KCA2 142006Z 33007KT 38/15 A2996 RMK A01 T03790153  RH  026%=      5-min Rain = 0
KCA2 142007Z 32008KT 38/15 A2996 RMK A01 T03810153  RH  026%=      5-min Rain = 0
KCA2 142008Z 35005KT 38/15 A2996 RMK A01 T03810153  RH  026%=      5-min Rain = 0
KCA2 142009Z 01005KT 38/15 A2996 RMK A01 T03800153  RH  026%=      5-min Rain = 0
KCA2 142010Z 03004KT 38/15 A2996 RMK A01 T03780154  RH  027%=      5-min Rain = 0
KCA2 142011Z 33002KT 38/15 A2996 RMK A01 T03780154  RH  027%=      5-min Rain = 0
KCA2 142012Z 35008KT 38/15 A2996 RMK A01 T03790154  RH  026%=      5-min Rain = 0
KCA2 142013Z 35008KT 38/16 A2996 RMK A01 T03810155  RH  026%=      5-min Rain = 0
KCA2 142014Z 33006KT 38/15 A2996 RMK A01 T03800154  RH  026%=      5-min Rain = 0
KCA2 142015Z 31002KT 38/15 A2996 RMK A01 T03770152  RH  027%=      5-min Rain = 0
KCA2 142016Z 35004KT 38/15 A2995 RMK A01 T03770154  RH  027%=      5-min Rain = 0
KCA2 142017Z 36004KT 38/15 A2995 RMK A01 T03780154  RH  027%=      5-min Rain = 0
KCA2 142018Z 34004KT 38/15 A2995 RMK A01 T03770154  RH  027%=      5-min Rain = 0
KCA2 142019Z 34006G11KT 38/15 A2995 RMK A01 T03760154  RH  027%=      5-min Rain = 0
KCA2 142020Z 35009KT 38/16 A2995 RMK A01 T03770158  RH  027%=      5-min Rain = 0
KCA2 142021Z 00006G11KT 38/16 A2995 RMK A01 T03780158  RH  027%=      5-min Rain = 0
KCA2 142022Z 02010KT 38/16 A2995 RMK A01 T03750158  RH  028%=      5-min Rain = 0
KCA2 142023Z 04012KT 38/16 A2995 RMK A01 T03750159  RH  028%=      5-min Rain = 0
KCA2 142024Z 03011KT 38/16 A2995 RMK A01 T03750159  RH  028%=      5-min Rain = 0
KCA2 142025Z 03007KT 37/16 A2995 RMK A01 T03720158  RH  028%=      5-min Rain = 0
KCA2 142026Z 04005KT 37/16 A2995 RMK A01 T03730159  RH  028%=      5-min Rain = 0
KCA2 142027Z 03006KT 37/16 A2995 RMK A01 T03740159  RH  028%=      5-min Rain = 0
KCA2 142028Z 05006KT 38/16 A2995 RMK A01 T03760159  RH  028%=      5-min Rain = 0
KCA2 142029Z 05007KT 38/16 A2995 RMK A01 T03780159  RH  028%=      5-min Rain = 0
KCA2 142030Z 02007G12KT 38/16 A2995 RMK A01 T03760159  RH  028%=      5-min Rain = 0
KCA2 142031Z 02012KT 38/16 A2995 RMK A01 T03790160  RH  028%=      5-min Rain = 0
KCA2 142032Z 02013KT 38/16 A2995 RMK A01 T03820160  RH  027%=      5-min Rain = 0
KCA2 142033Z 04012KT 38/16 A2995 RMK A01 T03820159  RH  027%=      5-min Rain = 0
KCA2 142034Z 03013G18KT 38/16 A2995 RMK A01 T03820159  RH  027%=      5-min Rain = 0
KCA2 142035Z 03010KT 39/16 A2995 RMK A01 T03850160  RH  027%=      5-min Rain = 0
KCA2 142036Z 04014G19KT 39/16 A2995 RMK A01 T03870160  RH  026%=      5-min Rain = 0
KCA2 142037Z 05011KT 39/16 A2994 RMK A01 T03850159  RH  026%=      5-min Rain = 0
KCA2 142038Z 04011KT 39/16 A2994 RMK A01 T03850159  RH  026%=      5-min Rain = 0
KCA2 142039Z 04011KT 39/16 A2994 RMK A01 T03850159  RH  026%=      5-min Rain = 0
KCA2 142040Z 02012G20KT 39/16 A2994 RMK A01 T03880160  RH  026%=      5-min Rain = 0
KCA2 142041Z 01018KT 39/16 A2994 RMK A01 T03920158  RH  025%=      5-min Rain = 0
KCA2 142042Z 00014KT 39/16 A2994 RMK A01 T03890156  RH  025%=      5-min Rain = 0
KCA2 142043Z 35014KT 39/16 A2994 RMK A01 T03880157  RH  026%=      5-min Rain = 0
KCA2 142044Z 35014KT 39/16 A2994 RMK A01 T03880157  RH  026%=      5-min Rain = 0
KCA2 142045Z 36015KT 39/16 A2994 RMK A01 T03890157  RH  026%=      5-min Rain = 0
KCA2 142046Z 35012KT 39/16 A2994 RMK A01 T03880157  RH  026%=      5-min Rain = 0
KCA2 142047Z 35010G17KT 39/16 A2994 RMK A01 T03890157  RH  026%=      5-min Rain = 0
KCA2 142048Z 35016KT 39/16 A2994 RMK A01 T03900156  RH  025%=      5-min Rain = 0
KCA2 142049Z 35014KT 39/16 A2994 RMK A01 T03850155  RH  026%=      5-min Rain = 0
KCA2 142050Z 00014KT 39/16 A2994 RMK A01 T03880157  RH  026%=      5-min Rain = 0
KCA2 142051Z 02013KT 39/16 A2994 RMK A01 T03900157  RH  025%=      5-min Rain = 0
KCA2 142052Z 01014KT 39/16 A2994 RMK A01 T03900157  RH  025%=      5-min Rain = 0
KCA2 142053Z 02013KT 39/16 A2994 RMK A01 T03910157  RH  025%=      5-min Rain = 0
KCA2 142054Z 02014KT 39/16 A2994 RMK A01 T03920156  RH  025%=      5-min Rain = 0
KCA2 142055Z 04013G18KT 39/16 A2994 RMK A01 T03910156  RH  025%=      5-min Rain = 0
KCA2 142056Z 04018KT 39/16 A2994 RMK A01 T03910156  RH  025%=      5-min Rain = 0
KCA2 142057Z 05015KT 39/16 A2994 RMK A01 T03860155  RH  026%=      5-min Rain = 0
KCA2 142058Z 04012KT 39/16 A2994 RMK A01 T03860157  RH  026%=      5-min Rain = 0
KCA2 142059Z 02007KT 39/16 A2994 RMK A01 T03880158  RH  026%=      5-min Rain = 0
KCA2 142100Z 03012KT 39/16 A2994 RMK A01 T03910158  RH  026%=      5-min Rain = 0
KCA2 142101Z 02010KT 39/16 A2994 RMK A01 T03900157  RH  026%=      5-min Rain = 0
KCA2 142102Z 01012KT 39/16 A2994 RMK A01 T03890155  RH  025%=      5-min Rain = 0
KCA2 142103Z 01008KT 39/16 A2994 RMK A01 T03880155  RH  025%=      5-min Rain = 0
KCA2 142104Z 00015KT 39/16 A2994 RMK A01 T03910158  RH  025%=      5-min Rain = 0
KCA2 142105Z 35012KT 39/16 A2994 RMK A01 T03920160  RH  026%=      5-min Rain = 0
KCA2 142106Z 36017KT 39/16 A2994 RMK A01 T03910160  RH  026%=      5-min Rain = 0
KCA2 142107Z 36015KT 39/16 A2994 RMK A01 T03910160  RH  026%=      5-min Rain = 0
KCA2 142108Z 36011KT 39/16 A2994 RMK A01 T03910160  RH  026%=      5-min Rain = 0
KCA2 142109Z 35015G20KT 39/16 A2994 RMK A01 T03930160  RH  026%=      5-min Rain = 0
KCA2 142110Z 01015G24KT 39/16 A2994 RMK A01 T03940160  RH  025%=      5-min Rain = 0
KCA2 142111Z 03020KT 40/16 A2994 RMK A01 T03970161  RH  025%=      5-min Rain = 0
KCA2 142112Z 04019G24KT 39/16 A2994 RMK A01 T03910159  RH  026%=      5-min Rain = 0
KCA2 142113Z 02014KT 39/16 A2994 RMK A01 T03860157  RH  026%=      5-min Rain = 0
KCA2 142114Z 02009KT 38/16 A2994 RMK A01 T03840157  RH  026%=      5-min Rain = 0
KCA2 142115Z 04015G23KT 39/16 A2994 RMK A01 T03860158  RH  026%=      5-min Rain = 0
KCA2 142116Z 05013G19KT 38/16 A2995 RMK A01 T03840158  RH  026%=      5-min Rain = 0
KCA2 142117Z 04008KT 38/16 A2995 RMK A01 T03810157  RH  027%=      5-min Rain = 0
KCA2 142118Z 03010KT 38/16 A2995 RMK A01 T03790157  RH  027%=      5-min Rain = 0
KCA2 142119Z 03010G15KT 38/16 A2995 RMK A01 T03800158  RH  027%=      5-min Rain = 0
KCA2 142120Z 07006KT 38/16 A2995 RMK A01 T03790159  RH  027%=      5-min Rain = 0
KCA2 142121Z 07011KT 38/16 A2995 RMK A01 T03800160  RH  027%=      5-min Rain = 0
KCA2 142122Z 10008KT 38/16 A2996 RMK A01 T03800160  RH  027%=      5-min Rain = 0
KCA2 142123Z 16009G15KT 38/16 A2996 RMK A01 T03800161  RH  027%=      5-min Rain = 0
KCA2 142124Z 13006KT 38/17 A2997 RMK A01 T03800168  RH  029%=      5-min Rain = 0
KCA2 142125Z 08018G30KT 37/17 A2998 RMK A01 T03740173  RH  031%=      5-min Rain = 0
KCA2 142126Z 07020KT 35/18 A2997 RMK A01 T03460180  RH  038%=      5-min Rain = 0
KCA2 142127Z 07017G23KT 33/18 A2996 RMK A01 T03280180  RH  042%=      5-min Rain = 0
KCA2 142128Z 10014KT 33/18 A2996 RMK A01 T03260176  RH  041%=      5-min Rain = 0
KCA2 142129Z 09020KT 33/18 A2997 RMK A01 T03290177  RH  040%=      5-min Rain = 0
KCA2 142130Z 10015G22KT 33/18 A2997 RMK A01 T03290175  RH  040%=      5-min Rain = 0
KCA2 142131Z 12012KT 33/18 A2997 RMK A01 T03300176  RH  040%=      5-min Rain = 0
KCA2 142132Z 11016G25KT 33/18 A2998 RMK A01 T03310178  RH  040%=      5-min Rain = 0
KCA2 142133Z 10017G22KT 33/18 A2998 RMK A01 T03280178  RH  041%=      5-min Rain = 0
KCA2 142134Z 11018KT 32/18 A2998 RMK A01 T03220180  RH  043%=      5-min Rain = 0
KCA2 142135Z 11016KT 32/18 A2999 RMK A01 T03160180  RH  044%=      5-min Rain = 0
KCA2 142136Z 12020G27KT 32/18 A2999 RMK A01 T03150181  RH  045%=      5-min Rain = 0
KCA2 142137Z 12023G33KT 32/18 A2999 RMK A01 T03150182  RH  045%=      5-min Rain = 0
KCA2 142138Z 12021G29KT 32/18 A2999 RMK A01 T03150182  RH  045%=      5-min Rain = 0
KCA2 142139Z 13020G26KT 32/18 A2999 RMK A01 T03160183  RH  045%=      5-min Rain = 0
KCA2 142140Z 14021G26KT 31/19 A2999 RMK A01 T03140186  RH  046%=      5-min Rain = 0
KCA2 142141Z 14017G24KT 31/19 A30 RMK A01 T03100187  RH  048%=      5-min Rain = 0
KCA2 142142Z 15020G26KT 31/19 A30 RMK A01 T03080187  RH  049%=      5-min Rain = 0
KCA2 142143Z 14016G22KT 30/19 A30 RMK A01 T03040188  RH  050%=      5-min Rain = 0
KCA2 142144Z 15016KT 30/19 A30 RMK A01 T03030189  RH  051%=      5-min Rain = 0
KCA2 142145Z 14017G22KT 30/19 A30 RMK A01 T03010190  RH  051%=      5-min Rain = 0
KCA2 142146Z 15021G27KT 30/19 A30 RMK A01 T02990189  RH  052%=      5-min Rain = 0
KCA2 142147Z 15016KT 30/19 A30 RMK A01 T02970188  RH  052%=      5-min Rain = 0
KCA2 142148Z 15016G21KT 30/19 A30 RMK A01 T02960188  RH  052%=      5-min Rain = 0
KCA2 142149Z 15020KT 30/19 A3001 RMK A01 T02960187  RH  052%=      5-min Rain = 0
KCA2 142150Z 15019G26KT 29/19 A3001 RMK A01 T02940186  RH  052%=      5-min Rain = 0
KCA2 142151Z 15013G18KT 29/19 A3001 RMK A01 T02920187  RH  053%=      5-min Rain = 0
KCA2 142152Z 15018G25KT 29/19 A3001 RMK A01 T02920187  RH  053%=      5-min Rain = 0
KCA2 142153Z 14020KT 29/19 A3001 RMK A01 T02910185  RH  053%=      5-min Rain = 0
KCA2 142154Z 14015G20KT 29/19 A3001 RMK A01 T02900185  RH  053%=      5-min Rain = 0
KCA2 142155Z 15017G24KT 29/18 A3001 RMK A01 T02900184  RH  053%=      5-min Rain = 0
KCA2 142156Z 16018G29KT 29/18 A3001 RMK A01 T02920182  RH  051%=      5-min Rain = 0
KCA2 142157Z 16020G28KT 30/18 A30 RMK A01 T02950184  RH  051%=      5-min Rain = 0
KCA2 142158Z 16020G27KT 30/19 A3001 RMK A01 T02950186  RH  052%=      5-min Rain = 0
KCA2 142159Z 16021G34KT 29/19 A3001 RMK A01 T02940188  RH  053%=      5-min Rain = 0
KCA2 142200Z 15022G27KT 29/19 A30 RMK A01 T02930186  RH  052%=      5-min Rain = 0
KCA2 142201Z 15020G25KT 29/19 A3001 RMK A01 T02930186  RH  053%=      5-min Rain = 0
KCA2 142202Z 15020G25KT 29/19 A3001 RMK A01 T02920187  RH  053%=      5-min Rain = 0
KCA2 142203Z 14014G19KT 29/19 A3001 RMK A01 T02910188  RH  054%=      5-min Rain = 0
KCA2 142204Z 14016G21KT 29/19 A3001 RMK A01 T02900188  RH  054%=      5-min Rain = 0
KCA2 142205Z 14017KT 29/19 A3001 RMK A01 T02890188  RH  054%=      5-min Rain = 0
KCA2 142206Z 13010KT 29/19 A3001 RMK A01 T02870189  RH  055%=      5-min Rain = 0
KCA2 142207Z 14014KT 29/19 A3001 RMK A01 T02870190  RH  055%=      5-min Rain = 0
KCA2 142208Z 14013KT 29/19 A3001 RMK A01 T02870191  RH  056%=      5-min Rain = 0
KCA2 142209Z 14015KT 29/19 A3001 RMK A01 T02860191  RH  056%=      5-min Rain = 0
KCA2 142210Z 14015KT 28/19 A3001 RMK A01 T02840190  RH  057%=      5-min Rain = 0
KCA2 142211Z 14014KT 28/19 A3001 RMK A01 T02820188  RH  057%=      5-min Rain = 0
KCA2 142212Z 14010KT 28/19 A3001 RMK A01 T02810187  RH  056%=      5-min Rain = 0
KCA2 142213Z 14010KT 28/19 A3001 RMK A01 T02820186  RH  056%=      5-min Rain = 0
KCA2 142214Z 15014KT 28/18 A30 RMK A01 T02840184  RH  055%=      5-min Rain = 0
KCA2 142215Z 15017KT 29/18 A30 RMK A01 T02860183  RH  054%=      5-min Rain = 0
KCA2 142216Z 15012G18KT 29/18 A30 RMK A01 T02880180  RH  052%=      5-min Rain = 0
KCA2 142217Z 14011KT 29/18 A30 RMK A01 T02900182  RH  052%=      5-min Rain = 0
KCA2 142218Z 14010KT 29/18 A30 RMK A01 T02910181  RH  052%=      5-min Rain = 0
KCA2 142219Z 14010KT 29/18 A30 RMK A01 T02910182  RH  052%=      5-min Rain = 0
KCA2 142220Z 14009KT 29/18 A30 RMK A01 T02910183  RH  052%=      5-min Rain = 0
KCA2 142221Z 13008KT 29/18 A30 RMK A01 T02910184  RH  052%=      5-min Rain = 0
KCA2 142222Z 12009KT 29/18 A30 RMK A01 T02920183  RH  052%=      5-min Rain = 0
KCA2 142223Z 11009KT 29/18 A30 RMK A01 T02920184  RH  052%=      5-min Rain = 0
KCA2 142224Z 11008KT 29/18 A30 RMK A01 T02930183  RH  052%=      5-min Rain = 0
KCA2 142225Z 11009KT 29/18 A30 RMK A01 T02940183  RH  051%=      5-min Rain = 0
KCA2 142226Z 11009KT 30/18 A30 RMK A01 T02950183  RH  051%=      5-min Rain = 0
KCA2 142227Z 13008KT 30/18 A30 RMK A01 T02950182  RH  051%=      5-min Rain = 0
KCA2 142228Z 13007KT 30/18 A2999 RMK A01 T02950181  RH  050%=      5-min Rain = 0
KCA2 142229Z 13008KT 30/18 A2999 RMK A01 T02950182  RH  051%=      5-min Rain = 0
KCA2 142230Z 14006KT 30/18 A2999 RMK A01 T02950183  RH  051%=      5-min Rain = 0
KCA2 142231Z 12008KT 30/18 A2999 RMK A01 T02970181  RH  050%=      5-min Rain = 0
KCA2 142232Z 11009KT 30/17 A2999 RMK A01 T03000174  RH  047%=      5-min Rain = 0
KCA2 142233Z 14007KT 30/18 A2999 RMK A01 T03020182  RH  049%=      5-min Rain = 0
KCA2 142234Z 15007KT 30/18 A2999 RMK A01 T03020183  RH  049%=      5-min Rain = 0
KCA2 142235Z 15008KT 30/18 A2999 RMK A01 T03010183  RH  049%=      5-min Rain = 0
KCA2 142236Z 13009KT 30/18 A2999 RMK A01 T02990182  RH  049%=      5-min Rain = 0
KCA2 142237Z 14005KT 30/18 A2999 RMK A01 T02990177  RH  048%=      5-min Rain = 0
KCA2 142238Z 16006KT 30/18 A2999 RMK A01 T03000182  RH  049%=      5-min Rain = 0
KCA2 142239Z 18008KT 30/18 A2998 RMK A01 T03000183  RH  049%=      5-min Rain = 0
KCA2 142240Z 19006KT 30/18 A2998 RMK A01 T03000180  RH  049%=      5-min Rain = 0
KCA2 142241Z 18005KT 30/18 A2999 RMK A01 T02990182  RH  049%=      5-min Rain = 0
KCA2 142242Z 18004KT 30/18 A2999 RMK A01 T02990182  RH  049%=      5-min Rain = 0
KCA2 142243Z 19005KT 30/18 A2999 RMK A01 T02990181  RH  049%=      5-min Rain = 0
KCA2 142244Z 18005KT 30/18 A2999 RMK A01 T02990180  RH  049%=      5-min Rain = 0
KCA2 142245Z 19004KT 30/18 A2999 RMK A01 T03000180  RH  049%=      5-min Rain = 0
KCA2 142246Z 17003KT 30/18 A2999 RMK A01 T03010181  RH  049%=      5-min Rain = 0
KCA2 142247Z 19006KT 30/18 A2999 RMK A01 T03010181  RH  049%=      5-min Rain = 0
KCA2 142248Z 19004KT 30/18 A2999 RMK A01 T03010181  RH  048%=      5-min Rain = 0
KCA2 142249Z 20004KT 30/18 A2999 RMK A01 T03010181  RH  048%=      5-min Rain = 0
KCA2 142250Z 20003KT 30/18 A2999 RMK A01 T03010180  RH  048%=      5-min Rain = 0
KCA2 142251Z 20003KT 30/18 A2999 RMK A01 T03020177  RH  047%=      5-min Rain = 0
KCA2 142252Z 18004KT 30/18 A2999 RMK A01 T03020178  RH  047%=      5-min Rain = 0
KCA2 142253Z 18003KT 30/18 A2999 RMK A01 T03040177  RH  047%=      5-min Rain = 0
KCA2 142254Z 17003KT 30/18 A2999 RMK A01 T03040179  RH  047%=      5-min Rain = 0
KCA2 142255Z 18003KT 30/18 A2999 RMK A01 T03040179  RH  047%=      5-min Rain = 0
KCA2 142256Z 18002KT 30/18 A2999 RMK A01 T03040180  RH  047%=      5-min Rain = 0
KCA2 142257Z 20001KT 30/18 A2999 RMK A01 T03040178  RH  047%=      5-min Rain = 0
KCA2 142258Z 00000KT 30/18 A2999 RMK A01 T03040177  RH  047%=      5-min Rain = 0
KCA2 142259Z 13002KT 30/18 A2999 RMK A01 T03040177  RH  047%=      5-min Rain = 0
KCA2 142300Z 12001KT 30/18 A2999 RMK A01 T03040178  RH  047%=      5-min Rain = 0
KCA2 142301Z 14001KT 30/18 A2999 RMK A01 T03040178  RH  047%=      5-min Rain = 0
KCA2 142302Z 15002KT 31/18 A2999 RMK A01 T03050177  RH  046%=      5-min Rain = 0
KCA2 142303Z 13002KT 31/18 A2999 RMK A01 T03060176  RH  046%=      5-min Rain = 0
KCA2 142304Z 12002KT 31/18 A2999 RMK A01 T03070177  RH  046%=      5-min Rain = 0
KCA2 142305Z 11001KT 31/17 A2999 RMK A01 T03070172  RH  045%=      5-min Rain = 0
KCA2 142306Z 12001KT 31/17 A2999 RMK A01 T03070171  RH  044%=      5-min Rain = 0
KCA2 142307Z 13001KT 31/17 A2999 RMK A01 T03070172  RH  044%=      5-min Rain = 0
KCA2 142308Z 15002KT 31/17 A2999 RMK A01 T03080172  RH  044%=      5-min Rain = 0
KCA2 142309Z 14002KT 31/17 A2999 RMK A01 T03080173  RH  044%=      5-min Rain = 0
KCA2 142310Z 17003KT 31/17 A2999 RMK A01 T03090173  RH  044%=      5-min Rain = 0
KCA2 142311Z 15005KT 31/17 A2999 RMK A01 T03100171  RH  043%=      5-min Rain = 0
KCA2 142312Z 14003KT 31/17 A2999 RMK A01 T03110170  RH  043%=      5-min Rain = 0
KCA2 142313Z 14002KT 31/17 A2999 RMK A01 T03110170  RH  043%=      5-min Rain = 0
KCA2 142314Z 15002KT 31/17 A2999 RMK A01 T03120170  RH  043%=      5-min Rain = 0
KCA2 142315Z 16002KT 31/17 A2999 RMK A01 T03120169  RH  042%=      5-min Rain = 0
KCA2 142316Z 18003KT 31/17 A2999 RMK A01 T03130170  RH  043%=      5-min Rain = 0
KCA2 142317Z 17003KT 31/17 A2999 RMK A01 T03120171  RH  043%=      5-min Rain = 0
KCA2 142318Z 17003KT 31/17 A2999 RMK A01 T03120171  RH  043%=      5-min Rain = 0
KCA2 142319Z 18004KT 31/17 A2999 RMK A01 T03130171  RH  043%=      5-min Rain = 0
KCA2 142320Z 18004KT 31/17 A2999 RMK A01 T03120171  RH  043%=      5-min Rain = 0
KCA2 142321Z 18004KT 31/17 A2999 RMK A01 T03130171  RH  043%=      5-min Rain = 0
KCA2 142322Z 18003KT 31/17 A2999 RMK A01 T03140171  RH  043%=      5-min Rain = 0
KCA2 142323Z 19004KT 31/17 A2999 RMK A01 T03140171  RH  042%=      5-min Rain = 0
KCA2 142324Z 19005KT 31/17 A2999 RMK A01 T03140171  RH  042%=      5-min Rain = 0
KCA2 142325Z 19005KT 32/17 A2999 RMK A01 T03150171  RH  042%=      5-min Rain = 0
KCA2 142326Z 20004KT 32/17 A2999 RMK A01 T03150171  RH  042%=      5-min Rain = 0
KCA2 142327Z 20004KT 31/17 A2999 RMK A01 T03140171  RH  042%=      5-min Rain = 0
KCA2 142328Z 20005KT 32/17 A2999 RMK A01 T03160170  RH  042%=      5-min Rain = 0
KCA2 142329Z 20004KT 32/17 A2999 RMK A01 T03160170  RH  041%=      5-min Rain = 0
KCA2 142330Z 20004KT 32/17 A2999 RMK A01 T03170169  RH  041%=      5-min Rain = 0
KCA2 142331Z 21003KT 32/17 A2999 RMK A01 T03170168  RH  041%=      5-min Rain = 0
KCA2 142332Z 21004KT 32/17 A2999 RMK A01 T03170168  RH  041%=      5-min Rain = 0
KCA2 142333Z 20005KT 32/17 A2999 RMK A01 T03170166  RH  040%=      5-min Rain = 0
KCA2 142334Z 20005KT 32/17 A2999 RMK A01 T03180166  RH  040%=      5-min Rain = 0
KCA2 142335Z 21004KT 32/17 A2999 RMK A01 T03180167  RH  040%=      5-min Rain = 0
KCA2 142336Z 20004KT 32/17 A2999 RMK A01 T03180168  RH  041%=      5-min Rain = 0
KCA2 142337Z 19004KT 32/17 A2999 RMK A01 T03180167  RH  041%=      5-min Rain = 0
KCA2 142338Z 19003KT 32/17 A2999 RMK A01 T03180166  RH  040%=      5-min Rain = 0
KCA2 142339Z 20003KT 32/17 A2999 RMK A01 T03170167  RH  041%=      5-min Rain = 0
KCA2 142340Z 21003KT 32/17 A2999 RMK A01 T03170167  RH  040%=      5-min Rain = 0
KCA2 142341Z 20003KT 32/17 A2999 RMK A01 T03180167  RH  041%=      5-min Rain = 0
KCA2 142342Z 18005KT 32/17 A2999 RMK A01 T03190167  RH  040%=      5-min Rain = 0
KCA2 142343Z 19004KT 32/17 A2999 RMK A01 T03190168  RH  040%=      5-min Rain = 0
KCA2 142344Z 19003KT 32/17 A2999 RMK A01 T03190168  RH  040%=      5-min Rain = 0
KCA2 142345Z 19004KT 32/17 A2999 RMK A01 T03190168  RH  040%=      5-min Rain = 0
KCA2 142346Z 18004KT 32/17 A2999 RMK A01 T03190167  RH  040%=      5-min Rain = 0
KCA2 142347Z 18005KT 32/17 A2999 RMK A01 T03190166  RH  040%=      5-min Rain = 0
KCA2 142348Z 17005KT 32/17 A2999 RMK A01 T03180166  RH  040%=      5-min Rain = 0
KCA2 142349Z 18005KT 32/17 A2999 RMK A01 T03180166  RH  040%=      5-min Rain = 0
KCA2 142350Z 17005KT 32/17 A2999 RMK A01 T03180166  RH  040%=      5-min Rain = 0
KCA2 142351Z 17004KT 32/17 A2999 RMK A01 T03180166  RH  040%=      5-min Rain = 0
KCA2 142352Z 17005KT 32/17 A2999 RMK A01 T03190167  RH  040%=      5-min Rain = 0
KCA2 142353Z 16005KT 32/17 A2999 RMK A01 T03180166  RH  040%=      5-min Rain = 0
KCA2 142354Z 17006KT 32/17 A2999 RMK A01 T03180166  RH  040%=      5-min Rain = 0
KCA2 142355Z 16005KT 32/17 A2999 RMK A01 T03180166  RH  040%=      5-min Rain = 0
KCA2 142356Z 17007KT 32/17 A2999 RMK A01 T03190166  RH  040%=      5-min Rain = 0
KCA2 142357Z 17005KT 32/16 A2999 RMK A01 T03180163  RH  039%=      5-min Rain = 0
KCA2 142358Z 16006KT 32/16 A2999 RMK A01 T03190164  RH  039%=      5-min Rain = 0
KCA2 142359Z 15004KT 32/17 A2999 RMK A01 T03190166  RH  040%=      5-min Rain = 0
KCA2 150000Z 16007KT 32/17 A2999 RMK A01 T03190167  RH  040%=      5-min Rain = 0
KCA2 150001Z 16007KT 32/17 A2999 RMK A01 T03190167  RH  040%=      5-min Rain = 0
KCA2 150002Z 16007KT 32/17 A2999 RMK A01 T03190167  RH  040%=      5-min Rain = 0
KCA2 150003Z 16006KT 32/17 A2999 RMK A01 T03180165  RH  040%=      5-min Rain = 0
KCA2 150004Z 17006KT 32/16 A2999 RMK A01 T03180164  RH  040%=      5-min Rain = 0
KCA2 150005Z 15006KT 32/16 A2999 RMK A01 T03180162  RH  039%=      5-min Rain = 0
KCA2 150006Z 16007KT 32/16 A2999 RMK A01 T03190162  RH  039%=      5-min Rain = 0
KCA2 150007Z 16007KT 32/17 A2999 RMK A01 T03190166  RH  040%=      5-min Rain = 0
KCA2 150008Z 16007KT 32/17 A2999 RMK A01 T03190166  RH  040%=      5-min Rain = 0
KCA2 150009Z 16006KT 32/17 A2999 RMK A01 T03190166  RH  040%=      5-min Rain = 0
KCA2 150010Z 15005KT 32/17 A2999 RMK A01 T03190166  RH  040%=      5-min Rain = 0
KCA2 150011Z 15005KT 32/17 A2999 RMK A01 T03190166  RH  040%=      5-min Rain = 0
KCA2 150012Z 15007KT 32/17 A2999 RMK A01 T03190166  RH  040%=      5-min Rain = 0
KCA2 150013Z 15006KT 32/17 A2999 RMK A01 T03190166  RH  040%=      5-min Rain = 0
KCA2 150014Z 15007KT 32/17 A2999 RMK A01 T03190167  RH  040%=      5-min Rain = 0
KCA2 150015Z 15007KT 32/17 A2999 RMK A01 T03180166  RH  040%=      5-min Rain = 0
KCA2 150016Z 15006KT 32/17 A2999 RMK A01 T03180166  RH  040%=      5-min Rain = 0
KCA2 150017Z 15006KT 32/17 A2999 RMK A01 T03180166  RH  040%=      5-min Rain = 0
KCA2 150018Z 15006KT 32/17 A2999 RMK A01 T03180166  RH  040%=      5-min Rain = 0
KCA2 150019Z 15005KT 32/17 A2999 RMK A01 T03180167  RH  040%=      5-min Rain = 0
KCA2 150020Z 14005KT 32/17 A2999 RMK A01 T03170166  RH  040%=      5-min Rain = 0
KCA2 150021Z 16004KT 32/17 A2999 RMK A01 T03180167  RH  040%=      5-min Rain = 0
KCA2 150022Z 16004KT 32/17 A2999 RMK A01 T03170167  RH  041%=      5-min Rain = 0
KCA2 150023Z 16005KT 32/17 A2999 RMK A01 T03180168  RH  041%=      5-min Rain = 0
KCA2 150024Z 16006KT 32/17 A2999 RMK A01 T03180167  RH  041%=      5-min Rain = 0
KCA2 150025Z 16006KT 32/17 A2999 RMK A01 T03180168  RH  041%=      5-min Rain = 0
KCA2 150026Z 16005KT 32/17 A2999 RMK A01 T03180168  RH  041%=      5-min Rain = 0
KCA2 150027Z 15005KT 32/17 A2999 RMK A01 T03180168  RH  041%=      5-min Rain = 0
KCA2 150028Z 16003KT 32/17 A2999 RMK A01 T03180168  RH  041%=      5-min Rain = 0
KCA2 150029Z 17004KT 32/17 A2999 RMK A01 T03180168  RH  041%=      5-min Rain = 0
KCA2 150030Z 17005KT 32/17 A2999 RMK A01 T03180168  RH  041%=      5-min Rain = 0
KCA2 150031Z 18005KT 32/17 A2999 RMK A01 T03190168  RH  041%=      5-min Rain = 0
KCA2 150032Z 17004KT 32/17 A2999 RMK A01 T03190169  RH  041%=      5-min Rain = 0
KCA2 150033Z 17004KT 32/17 A2999 RMK A01 T03190169  RH  041%=      5-min Rain = 0
KCA2 150034Z 16004KT 32/17 A2999 RMK A01 T03190169  RH  041%=      5-min Rain = 0
KCA2 150035Z 16004KT 32/17 A2999 RMK A01 T03190169  RH  041%=      5-min Rain = 0
KCA2 150036Z 16004KT 32/17 A2999 RMK A01 T03190169  RH  041%=      5-min Rain = 0
KCA2 150037Z 15003KT 32/17 A2999 RMK A01 T03190169  RH  041%=      5-min Rain = 0
KCA2 150038Z 13002KT 32/17 A2999 RMK A01 T03180170  RH  041%=      5-min Rain = 0
KCA2 150039Z 12002KT 32/17 A2999 RMK A01 T03180171  RH  041%=      5-min Rain = 0
KCA2 150040Z 13003KT 32/17 A2999 RMK A01 T03180171  RH  042%=      5-min Rain = 0
KCA2 150041Z 14003KT 32/17 A2998 RMK A01 T03170171  RH  042%=      5-min Rain = 0
KCA2 150042Z 14003KT 32/17 A2998 RMK A01 T03170170  RH  041%=      5-min Rain = 0
KCA2 150043Z 15003KT 32/17 A2998 RMK A01 T03170171  RH  041%=      5-min Rain = 0
KCA2 150044Z 14004KT 32/17 A2998 RMK A01 T03170171  RH  041%=      5-min Rain = 0
KCA2 150045Z 15004KT 32/17 A2998 RMK A01 T03170171  RH  041%=      5-min Rain = 0
KCA2 150046Z 15004KT 32/17 A2998 RMK A01 T03180171  RH  042%=      5-min Rain = 0
KCA2 150047Z 14004KT 32/17 A2998 RMK A01 T03170171  RH  041%=      5-min Rain = 0
KCA2 150048Z 15004KT 32/17 A2998 RMK A01 T03180171  RH  042%=      5-min Rain = 0
KCA2 150049Z 15005KT 32/17 A2999 RMK A01 T03180171  RH  042%=      5-min Rain = 0
KCA2 150050Z 15006KT 32/17 A2999 RMK A01 T03180171  RH  041%=      5-min Rain = 0
KCA2 150051Z 15006KT 32/17 A2999 RMK A01 T03170170  RH  041%=      5-min Rain = 0
KCA2 150052Z 15007KT 32/17 A2999 RMK A01 T03170170  RH  041%=      5-min Rain = 0
KCA2 150053Z 14007KT 32/17 A2999 RMK A01 T03170169  RH  041%=      5-min Rain = 0
KCA2 150054Z 14007KT 32/17 A2999 RMK A01 T03160169  RH  041%=      5-min Rain = 0
KCA2 150055Z 14008KT 32/17 A2998 RMK A01 T03160169  RH  041%=      5-min Rain = 0
KCA2 150056Z 14007KT 32/17 A2998 RMK A01 T03160169  RH  041%=      5-min Rain = 0
KCA2 150057Z 14007KT 32/17 A2998 RMK A01 T03150169  RH  041%=      5-min Rain = 0
KCA2 150058Z 13006KT 32/17 A2998 RMK A01 T03150169  RH  041%=      5-min Rain = 0
KCA2 150059Z 13008KT 32/17 A2998 RMK A01 T03150168  RH  041%=      5-min Rain = 0
KCA2 150100Z 13008KT 32/17 A2998 RMK A01 T03150168  RH  041%=      5-min Rain = 0
KCA2 150101Z 13007KT 31/17 A2998 RMK A01 T03140168  RH  042%=      5-min Rain = 0
KCA2 150102Z 13007KT 31/17 A2998 RMK A01 T03140168  RH  042%=      5-min Rain = 0
KCA2 150103Z 13008KT 31/17 A2998 RMK A01 T03140168  RH  041%=      5-min Rain = 0
KCA2 150104Z 14008KT 31/17 A2998 RMK A01 T03140167  RH  041%=      5-min Rain = 0
KCA2 150105Z 13009KT 31/17 A2998 RMK A01 T03140167  RH  041%=      5-min Rain = 0
KCA2 150106Z 13007KT 31/17 A2999 RMK A01 T03140166  RH  041%=      5-min Rain = 0
KCA2 150107Z 13008KT 31/17 A2999 RMK A01 T03140166  RH  041%=      5-min Rain = 0
KCA2 150108Z 13009KT 31/17 A2999 RMK A01 T03140166  RH  041%=      5-min Rain = 0
KCA2 150109Z 14009KT 31/17 A2999 RMK A01 T03140166  RH  041%=      5-min Rain = 0
KCA2 150110Z 13007KT 31/17 A2999 RMK A01 T03140165  RH  041%=      5-min Rain = 0
KCA2 150111Z 13007KT 31/17 A2999 RMK A01 T03140165  RH  041%=      5-min Rain = 0
KCA2 150112Z 12008KT 31/17 A2999 RMK A01 T03140165  RH  041%=      5-min Rain = 0
KCA2 150113Z 12008KT 31/17 A2999 RMK A01 T03140166  RH  041%=      5-min Rain = 0
KCA2 150114Z 13006KT 31/17 A2999 RMK A01 T03130166  RH  041%=      5-min Rain = 0
KCA2 150115Z 13007KT 31/17 A2999 RMK A01 T03130166  RH  041%=      5-min Rain = 0
KCA2 150116Z 13009KT 31/17 A2999 RMK A01 T03130166  RH  041%=      5-min Rain = 0
KCA2 150117Z 14009KT 31/17 A2999 RMK A01 T03120165  RH  041%=      5-min Rain = 0
KCA2 150118Z 14009KT 31/17 A2999 RMK A01 T03120165  RH  041%=      5-min Rain = 0
KCA2 150119Z 13008KT 31/17 A2999 RMK A01 T03110165  RH  041%=      5-min Rain = 0
KCA2 150120Z 13009KT 31/17 A2999 RMK A01 T03110165  RH  041%=      5-min Rain = 0
KCA2 150121Z 13008KT 31/17 A2999 RMK A01 T03110165  RH  042%=      5-min Rain = 0
KCA2 150122Z 14010KT 31/17 A2999 RMK A01 T03110165  RH  042%=      5-min Rain = 0
KCA2 150123Z 13009KT 31/17 A2999 RMK A01 T03100165  RH  042%=      5-min Rain = 0
KCA2 150124Z 13010KT 31/17 A2999 RMK A01 T03100166  RH  042%=      5-min Rain = 0
KCA2 150125Z 12009KT 31/17 A2999 RMK A01 T03090167  RH  042%=      5-min Rain = 0
KCA2 150126Z 13011KT 31/17 A30 RMK A01 T03080167  RH  043%=      5-min Rain = 0
KCA2 150127Z 14012KT 31/17 A30 RMK A01 T03080168  RH  043%=      5-min Rain = 0
KCA2 150128Z 14010KT 31/17 A30 RMK A01 T03070168  RH  043%=      5-min Rain = 0
KCA2 150129Z 14010KT 31/17 A30 RMK A01 T03070168  RH  043%=      5-min Rain = 0
KCA2 150130Z 14008KT 31/17 A30 RMK A01 T03070168  RH  043%=      5-min Rain = 0
KCA2 150131Z 14007KT 31/17 A30 RMK A01 T03060168  RH  043%=      5-min Rain = 0
KCA2 150132Z 14007KT 31/17 A30 RMK A01 T03060168  RH  043%=      5-min Rain = 0
KCA2 150133Z 15008KT 31/17 A30 RMK A01 T03060168  RH  043%=      5-min Rain = 0
KCA2 150134Z 15007KT 31/17 A30 RMK A01 T03060168  RH  043%=      5-min Rain = 0
KCA2 150135Z 14008KT 31/17 A30 RMK A01 T03060168  RH  043%=      5-min Rain = 0
KCA2 150136Z 14009KT 31/17 A30 RMK A01 T03070168  RH  043%=      5-min Rain = 0
KCA2 150137Z 15008KT 31/17 A30 RMK A01 T03060168  RH  043%=      5-min Rain = 0
KCA2 150138Z 14009KT 31/17 A30 RMK A01 T03060167  RH  043%=      5-min Rain = 0
KCA2 150139Z 15006KT 31/17 A30 RMK A01 T03060167  RH  043%=      5-min Rain = 0
KCA2 150140Z 15008KT 31/17 A30 RMK A01 T03060167  RH  043%=      5-min Rain = 0
KCA2 150141Z 15008KT 31/17 A30 RMK A01 T03060166  RH  043%=      5-min Rain = 0
KCA2 150142Z 15007KT 31/17 A30 RMK A01 T03060166  RH  043%=      5-min Rain = 0
KCA2 150143Z 14009KT 31/17 A30 RMK A01 T03060165  RH  043%=      5-min Rain = 0
KCA2 150144Z 14009KT 31/16 A3001 RMK A01 T03060164  RH  042%=      5-min Rain = 0
KCA2 150145Z 15010KT 31/16 A3001 RMK A01 T03060164  RH  042%=      5-min Rain = 0
KCA2 150146Z 15007KT 31/16 A3001 RMK A01 T03060163  RH  042%=      5-min Rain = 0
KCA2 150147Z 15009KT 31/16 A3001 RMK A01 T03060163  RH  042%=      5-min Rain = 0
KCA2 150148Z 15009KT 31/16 A3001 RMK A01 T03060162  RH  042%=      5-min Rain = 0
KCA2 150149Z 13007KT 31/16 A3001 RMK A01 T03060161  RH  042%=      5-min Rain = 0
KCA2 150150Z 14007KT 31/16 A3001 RMK A01 T03070162  RH  042%=      5-min Rain = 0
KCA2 150151Z 13007KT 31/16 A3001 RMK A01 T03070162  RH  042%=      5-min Rain = 0
KCA2 150152Z 13008KT 31/16 A3001 RMK A01 T03070162  RH  042%=      5-min Rain = 0
KCA2 150153Z 14008KT 31/16 A3001 RMK A01 T03060162  RH  042%=      5-min Rain = 0
KCA2 150154Z 13009KT 31/16 A3001 RMK A01 T03060162  RH  042%=      5-min Rain = 0
KCA2 150155Z 14008KT 31/16 A3001 RMK A01 T03060162  RH  042%=      5-min Rain = 0
KCA2 150156Z 13007KT 31/16 A3001 RMK A01 T03060162  RH  042%=      5-min Rain = 0
KCA2 150157Z 14007KT 31/16 A3001 RMK A01 T03050162  RH  042%=      5-min Rain = 0
KCA2 150158Z 14008KT 31/16 A3001 RMK A01 T03060162  RH  042%=      5-min Rain = 0
KCA2 150159Z 14008KT 31/16 A3001 RMK A01 T03060162  RH  042%=      5-min Rain = 0
KCA2 150200Z 14007KT 31/16 A3001 RMK A01 T03050162  RH  042%=      5-min Rain = 0
KCA2 150201Z 15006KT 31/16 A3001 RMK A01 T03050162  RH  042%=      5-min Rain = 0
KCA2 150202Z 14008KT 31/16 A3001 RMK A01 T03050162  RH  042%=      5-min Rain = 0
KCA2 150203Z 14008KT 31/16 A3001 RMK A01 T03050162  RH  042%=      5-min Rain = 0
KCA2 150204Z 15006KT 31/16 A3001 RMK A01 T03050162  RH  042%=      5-min Rain = 0
KCA2 150205Z 15006KT 31/16 A3001 RMK A01 T03050162  RH  042%=      5-min Rain = 0
KCA2 150206Z 15008KT 31/16 A3001 RMK A01 T03050162  RH  042%=      5-min Rain = 0
KCA2 150207Z 14007KT 31/16 A3001 RMK A01 T03050162  RH  042%=      5-min Rain = 0
KCA2 150208Z 15007KT 30/16 A3002 RMK A01 T03040162  RH  042%=      5-min Rain = 0
KCA2 150209Z 15007KT 30/16 A3002 RMK A01 T03040162  RH  042%=      5-min Rain = 0
KCA2 150210Z 14006KT 30/16 A3002 RMK A01 T03040162  RH  042%=      5-min Rain = 0
KCA2 150211Z 14005KT 30/16 A3002 RMK A01 T03040162  RH  042%=      5-min Rain = 0
KCA2 150212Z 14005KT 30/16 A3002 RMK A01 T03040162  RH  042%=      5-min Rain = 0
KCA2 150213Z 14006KT 30/16 A3002 RMK A01 T03040162  RH  042%=      5-min Rain = 0
KCA2 150214Z 14006KT 30/16 A3002 RMK A01 T03040162  RH  042%=      5-min Rain = 0
KCA2 150215Z 14007KT 30/16 A3002 RMK A01 T03040162  RH  043%=      5-min Rain = 0
KCA2 150216Z 15006KT 30/16 A3002 RMK A01 T03040163  RH  043%=      5-min Rain = 0
KCA2 150217Z 15007KT 30/16 A3002 RMK A01 T03040163  RH  043%=      5-min Rain = 0
KCA2 150218Z 15007KT 30/16 A3002 RMK A01 T03040163  RH  043%=      5-min Rain = 0
KCA2 150219Z 16007KT 30/16 A3002 RMK A01 T03030163  RH  043%=      5-min Rain = 0
KCA2 150220Z 15005KT 30/16 A3002 RMK A01 T03030163  RH  043%=      5-min Rain = 0
KCA2 150221Z 15006KT 30/16 A3002 RMK A01 T03030163  RH  043%=      5-min Rain = 0
KCA2 150222Z 15006KT 30/16 A3002 RMK A01 T03040163  RH  043%=      5-min Rain = 0
KCA2 150223Z 15006KT 30/16 A3002 RMK A01 T03030163  RH  043%=      5-min Rain = 0
KCA2 150224Z 15006KT 30/16 A3002 RMK A01 T03030163  RH  043%=      5-min Rain = 0
KCA2 150225Z 15007KT 30/16 A3002 RMK A01 T03030163  RH  043%=      5-min Rain = 0
KCA2 150226Z 15005KT 30/16 A3002 RMK A01 T03030163  RH  043%=      5-min Rain = 0
KCA2 150227Z 15006KT 30/16 A3002 RMK A01 T03030163  RH  043%=      5-min Rain = 0
KCA2 150228Z 14006KT 30/16 A3002 RMK A01 T03030163  RH  043%=      5-min Rain = 0
KCA2 150229Z 14007KT 30/16 A3002 RMK A01 T03030162  RH  043%=      5-min Rain = 0
KCA2 150230Z 13005KT 30/16 A3002 RMK A01 T03030162  RH  043%=      5-min Rain = 0
KCA2 150231Z 14005KT 30/16 A3002 RMK A01 T03030162  RH  043%=      5-min Rain = 0
KCA2 150232Z 13006KT 30/16 A3002 RMK A01 T03030162  RH  043%=      5-min Rain = 0
KCA2 150233Z 13005KT 30/16 A3002 RMK A01 T03030162  RH  043%=      5-min Rain = 0
KCA2 150234Z 14006KT 30/16 A3002 RMK A01 T03030162  RH  043%=      5-min Rain = 0
KCA2 150235Z 14004KT 30/16 A3002 RMK A01 T03030162  RH  043%=      5-min Rain = 0
KCA2 150236Z 14006KT 30/16 A3002 RMK A01 T03030162  RH  043%=      5-min Rain = 0
KCA2 150237Z 13005KT 30/16 A3002 RMK A01 T03030162  RH  043%=      5-min Rain = 0
KCA2 150238Z 13005KT 30/16 A3002 RMK A01 T03030162  RH  043%=      5-min Rain = 0
KCA2 150239Z 13007KT 30/16 A3002 RMK A01 T03030161  RH  043%=      5-min Rain = 0
KCA2 150240Z 14006KT 30/16 A3002 RMK A01 T03030161  RH  042%=      5-min Rain = 0
KCA2 150241Z 13006KT 30/16 A3002 RMK A01 T03020160  RH  042%=      5-min Rain = 0
KCA2 150242Z 13007KT 30/16 A3002 RMK A01 T03030160  RH  042%=      5-min Rain = 0
KCA2 150243Z 14007KT 30/16 A3002 RMK A01 T03020159  RH  042%=      5-min Rain = 0
KCA2 150244Z 13006KT 30/16 A3002 RMK A01 T03030159  RH  042%=      5-min Rain = 0
KCA2 150245Z 13006KT 30/16 A3002 RMK A01 T03020159  RH  042%=      5-min Rain = 0
KCA2 150246Z 13006KT 30/16 A3002 RMK A01 T03030159  RH  042%=      5-min Rain = 0
KCA2 150247Z 12006KT 30/16 A3002 RMK A01 T03030159  RH  042%=      5-min Rain = 0
KCA2 150248Z 13006KT 30/16 A3002 RMK A01 T03030159  RH  042%=      5-min Rain = 0
KCA2 150249Z 12005KT 30/16 A3002 RMK A01 T03030159  RH  042%=      5-min Rain = 0
KCA2 150250Z 13004KT 30/16 A3002 RMK A01 T03030159  RH  042%=      5-min Rain = 0
KCA2 150251Z 13005KT 30/16 A3002 RMK A01 T03030159  RH  042%=      5-min Rain = 0
KCA2 150252Z 13006KT 30/16 A3002 RMK A01 T03030158  RH  042%=      5-min Rain = 0
KCA2 150253Z 14006KT 30/16 A3003 RMK A01 T03030158  RH  041%=      5-min Rain = 0
KCA2 150254Z 13005KT 30/16 A3003 RMK A01 T03030158  RH  041%=      5-min Rain = 0
KCA2 150255Z 13006KT 30/16 A3003 RMK A01 T03030157  RH  041%=      5-min Rain = 0
KCA2 150256Z 13005KT 30/16 A3003 RMK A01 T03030157  RH  041%=      5-min Rain = 0
KCA2 150257Z 13006KT 30/16 A3003 RMK A01 T03030157  RH  041%=      5-min Rain = 0
KCA2 150258Z 12006KT 30/16 A3003 RMK A01 T03030157  RH  041%=      5-min Rain = 0
KCA2 150259Z 13005KT 30/16 A3003 RMK A01 T03030157  RH  041%=      5-min Rain = 0
KCA2 150300Z 13006KT 30/16 A3003 RMK A01 T03030157  RH  041%=      5-min Rain = 0
KCA2 150301Z 13006KT 30/16 A3003 RMK A01 T03030156  RH  041%=      5-min Rain = 0
KCA2 150302Z 13006KT 30/16 A3003 RMK A01 T03030156  RH  041%=      5-min Rain = 0
KCA2 150303Z 12006KT 30/16 A3003 RMK A01 T03030156  RH  041%=      5-min Rain = 0
KCA2 150304Z 12007KT 30/16 A3003 RMK A01 T03030156  RH  041%=      5-min Rain = 0
KCA2 150305Z 13006KT 30/16 A3003 RMK A01 T03030155  RH  041%=      5-min Rain = 0
KCA2 150306Z 12006KT 30/16 A3003 RMK A01 T03030155  RH  041%=      5-min Rain = 0
KCA2 150307Z 13005KT 30/16 A3003 RMK A01 T03030155  RH  041%=      5-min Rain = 0
KCA2 150308Z 13007KT 30/16 A3003 RMK A01 T03030155  RH  041%=      5-min Rain = 0
KCA2 150309Z 13008KT 30/16 A3003 RMK A01 T03040156  RH  041%=      5-min Rain = 0
KCA2 150310Z 13007KT 30/16 A3003 RMK A01 T03030155  RH  041%=      5-min Rain = 0
KCA2 150311Z 13007KT 30/16 A3003 RMK A01 T03040156  RH  041%=      5-min Rain = 0
KCA2 150312Z 13007KT 30/16 A3003 RMK A01 T03030155  RH  041%=      5-min Rain = 0
KCA2 150313Z 13008KT 30/16 A3003 RMK A01 T03030155  RH  041%=      5-min Rain = 0
KCA2 150314Z 13008KT 30/16 A3003 RMK A01 T03030156  RH  041%=      5-min Rain = 0
KCA2 150315Z 13007KT 30/16 A3004 RMK A01 T03030156  RH  041%=      5-min Rain = 0
KCA2 150316Z 13007KT 30/16 A3004 RMK A01 T03030156  RH  041%=      5-min Rain = 0
KCA2 150317Z 14006KT 30/16 A3004 RMK A01 T03030156  RH  041%=      5-min Rain = 0
KCA2 150318Z 13007KT 30/16 A3004 RMK A01 T03030156  RH  041%=      5-min Rain = 0
KCA2 150319Z 14006KT 30/16 A3004 RMK A01 T03020156  RH  041%=      5-min Rain = 0
KCA2 150320Z 13006KT 30/16 A3004 RMK A01 T03020157  RH  041%=      5-min Rain = 0
KCA2 150321Z 13007KT 30/16 A3004 RMK A01 T03020157  RH  041%=      5-min Rain = 0
KCA2 150322Z 13008KT 30/16 A3004 RMK A01 T03020158  RH  042%=      5-min Rain = 0
KCA2 150323Z 13006KT 30/16 A3004 RMK A01 T03010158  RH  042%=      5-min Rain = 0
KCA2 150324Z 13007KT 30/16 A3004 RMK A01 T03010158  RH  042%=      5-min Rain = 0
KCA2 150325Z 13006KT 30/16 A3004 RMK A01 T03010158  RH  042%=      5-min Rain = 0
KCA2 150326Z 13006KT 30/16 A3004 RMK A01 T03010158  RH  042%=      5-min Rain = 0
KCA2 150327Z 13005KT 30/16 A3004 RMK A01 T03010158  RH  042%=      5-min Rain = 0
KCA2 150328Z 13008KT 30/16 A3004 RMK A01 T03010159  RH  042%=      5-min Rain = 0
KCA2 150329Z 13007KT 30/16 A3004 RMK A01 T03010159  RH  042%=      5-min Rain = 0
KCA2 150330Z 13009KT 30/16 A3004 RMK A01 T03010159  RH  042%=      5-min Rain = 0
KCA2 150331Z 13008KT 30/16 A3004 RMK A01 T03010160  RH  043%=      5-min Rain = 0
KCA2 150332Z 13009KT 30/16 A3004 RMK A01 T03010160  RH  043%=      5-min Rain = 0
KCA2 150333Z 14008KT 30/16 A3004 RMK A01 T03000160  RH  043%=      5-min Rain = 0
KCA2 150334Z 13007KT 30/16 A3004 RMK A01 T03000160  RH  043%=      5-min Rain = 0
KCA2 150335Z 13007KT 30/16 A3004 RMK A01 T03000160  RH  043%=      5-min Rain = 0
KCA2 150336Z 14007KT 30/16 A3004 RMK A01 T03000160  RH  043%=      5-min Rain = 0
KCA2 150337Z 13008KT 30/16 A3004 RMK A01 T03000161  RH  043%=      5-min Rain = 0
KCA2 150338Z 14009KT 30/16 A3004 RMK A01 T02990161  RH  043%=      5-min Rain = 0
KCA2 150339Z 14008KT 30/16 A3004 RMK A01 T02990161  RH  043%=      5-min Rain = 0
KCA2 150340Z 14007KT 30/16 A3004 RMK A01 T02990162  RH  044%=      5-min Rain = 0
KCA2 150341Z 14007KT 30/16 A3004 RMK A01 T02980162  RH  044%=      5-min Rain = 0
KCA2 150342Z 13008KT 30/16 A3004 RMK A01 T02980162  RH  044%=      5-min Rain = 0
KCA2 150343Z 13008KT 30/16 A3004 RMK A01 T02980162  RH  044%=      5-min Rain = 0
KCA2 150344Z 13008KT 30/16 A3004 RMK A01 T02980163  RH  044%=      5-min Rain = 0
KCA2 150345Z 13008KT 30/16 A3004 RMK A01 T02980163  RH  044%=      5-min Rain = 0
KCA2 150346Z 14007KT 30/16 A3004 RMK A01 T02980163  RH  044%=      5-min Rain = 0
KCA2 150347Z 13008KT 30/16 A3004 RMK A01 T02980162  RH  044%=      5-min Rain = 0
KCA2 150348Z 13006KT 30/16 A3004 RMK A01 T02980162  RH  044%=      5-min Rain = 0
KCA2 150349Z 13007KT 30/16 A3004 RMK A01 T02980162  RH  044%=      5-min Rain = 0
KCA2 150350Z 14007KT 30/16 A3004 RMK A01 T02980162  RH  044%=      5-min Rain = 0
KCA2 150351Z 14007KT 30/16 A3004 RMK A01 T02970162  RH  044%=      5-min Rain = 0
KCA2 150352Z 13007KT 30/16 A3004 RMK A01 T02970162  RH  044%=      5-min Rain = 0
KCA2 150353Z 14006KT 30/16 A3004 RMK A01 T02970162  RH  044%=      5-min Rain = 0
KCA2 150354Z 14005KT 30/16 A3004 RMK A01 T02970162  RH  044%=      5-min Rain = 0
KCA2 150355Z 13005KT 30/16 A3004 RMK A01 T02970162  RH  044%=      5-min Rain = 0
KCA2 150356Z 13007KT 30/16 A3004 RMK A01 T02970162  RH  044%=      5-min Rain = 0
KCA2 150357Z 13007KT 30/16 A3004 RMK A01 T02970162  RH  044%=      5-min Rain = 0
KCA2 150358Z 13006KT 30/16 A3004 RMK A01 T02970162  RH  044%=      5-min Rain = 0
KCA2 150359Z 13006KT 30/16 A3004 RMK A01 T02970162  RH  044%=      5-min Rain = 0
KCA2 150400Z 13006KT 30/16 A3004 RMK A01 T02970162  RH  044%=      5-min Rain = 0
KCA2 150401Z 13005KT 30/16 A3004 RMK A01 T02970162  RH  044%=      5-min Rain = 0
KCA2 150402Z 13007KT 30/16 A3004 RMK A01 T02970163  RH  044%=      5-min Rain = 0
KCA2 150403Z 13006KT 30/16 A3004 RMK A01 T02970162  RH  044%=      5-min Rain = 0
KCA2 150404Z 12006KT 30/16 A3004 RMK A01 T02960162  RH  044%=      5-min Rain = 0
KCA2 150405Z 12007KT 30/16 A3004 RMK A01 T02970163  RH  044%=      5-min Rain = 0
KCA2 150406Z 12007KT 30/16 A3004 RMK A01 T02960163  RH  044%=      5-min Rain = 0
KCA2 150407Z 12006KT 30/16 A3004 RMK A01 T02960163  RH  044%=      5-min Rain = 0
KCA2 150408Z 13006KT 30/16 A3004 RMK A01 T02970163  RH  044%=      5-min Rain = 0
KCA2 150409Z 12005KT 30/16 A3004 RMK A01 T02960163  RH  044%=      5-min Rain = 0
KCA2 150410Z 12005KT 30/16 A3004 RMK A01 T02970163  RH  044%=      5-min Rain = 0
KCA2 150411Z 13006KT 30/16 A3004 RMK A01 T02960163  RH  044%=      5-min Rain = 0
KCA2 150412Z 13005KT 30/16 A3004 RMK A01 T02960163  RH  044%=      5-min Rain = 0
KCA2 150413Z 13006KT 30/16 A3004 RMK A01 T02970163  RH  044%=      5-min Rain = 0
KCA2 150414Z 13006KT 30/16 A3004 RMK A01 T02970163  RH  044%=      5-min Rain = 0
KCA2 150415Z 12006KT 30/16 A3004 RMK A01 T02960162  RH  044%=      5-min Rain = 0
KCA2 150416Z 12005KT 30/16 A3004 RMK A01 T02960163  RH  044%=      5-min Rain = 0
KCA2 150417Z 11005KT 30/16 A3004 RMK A01 T02960163  RH  045%=      5-min Rain = 0
KCA2 150418Z 11005KT 30/16 A3004 RMK A01 T02960163  RH  045%=      5-min Rain = 0
KCA2 150419Z 11005KT 30/16 A3004 RMK A01 T02960163  RH  045%=      5-min Rain = 0
KCA2 150420Z 11006KT 30/16 A3004 RMK A01 T02960163  RH  045%=      5-min Rain = 0
KCA2 150421Z 12006KT 30/16 A3004 RMK A01 T02960163  RH  045%=      5-min Rain = 0
KCA2 150422Z 12005KT 30/16 A3004 RMK A01 T02960163  RH  045%=      5-min Rain = 0
KCA2 150423Z 11005KT 30/16 A3004 RMK A01 T02960163  RH  045%=      5-min Rain = 0
KCA2 150424Z 11004KT 30/16 A3004 RMK A01 T02960163  RH  045%=      5-min Rain = 0
KCA2 150425Z 11003KT 30/16 A3004 RMK A01 T02960163  RH  045%=      5-min Rain = 0
KCA2 150426Z 12004KT 30/16 A3004 RMK A01 T02960164  RH  045%=      5-min Rain = 0
KCA2 150427Z 11004KT 30/16 A3004 RMK A01 T02960163  RH  045%=      5-min Rain = 0
KCA2 150428Z 11005KT 30/16 A3004 RMK A01 T02960163  RH  045%=      5-min Rain = 0
KCA2 150429Z 11004KT 30/16 A3004 RMK A01 T02960163  RH  045%=      5-min Rain = 0
KCA2 150430Z 10004KT 30/16 A3004 RMK A01 T02960163  RH  045%=      5-min Rain = 0
KCA2 150431Z 11004KT 30/16 A3004 RMK A01 T02960163  RH  045%=      5-min Rain = 0
KCA2 150432Z 11005KT 30/16 A3004 RMK A01 T02960163  RH  045%=      5-min Rain = 0
KCA2 150433Z 11004KT 30/16 A3004 RMK A01 T02960163  RH  045%=      5-min Rain = 0
KCA2 150434Z 11005KT 30/16 A3004 RMK A01 T02960163  RH  045%=      5-min Rain = 0
KCA2 150435Z 09002KT 30/16 A3004 RMK A01 T02960163  RH  045%=      5-min Rain = 0
KCA2 150436Z 11003KT 30/16 A3004 RMK A01 T02960163  RH  045%=      5-min Rain = 0
KCA2 150437Z 10003KT 30/16 A3004 RMK A01 T02950163  RH  045%=      5-min Rain = 0
KCA2 150438Z 07002KT 30/16 A3004 RMK A01 T02960163  RH  045%=      5-min Rain = 0
KCA2 150439Z 07002KT 30/16 A3004 RMK A01 T02950164  RH  045%=      5-min Rain = 0
KCA2 150440Z 07003KT 30/17 A3004 RMK A01 T02950165  RH  045%=      5-min Rain = 0
KCA2 150441Z 07002KT 30/16 A3004 RMK A01 T02950164  RH  045%=      5-min Rain = 0
KCA2 150442Z 06002KT 30/17 A3005 RMK A01 T02950165  RH  045%=      5-min Rain = 0
KCA2 150443Z 05002KT 30/17 A3005 RMK A01 T02950166  RH  046%=      5-min Rain = 0
KCA2 150444Z 05002KT 29/17 A3005 RMK A01 T02940166  RH  046%=      5-min Rain = 0
KCA2 150445Z 06002KT 29/17 A3004 RMK A01 T02940166  RH  046%=      5-min Rain = 0
KCA2 150446Z 05002KT 29/17 A3004 RMK A01 T02940166  RH  046%=      5-min Rain = 0
KCA2 150447Z 06002KT 29/17 A3004 RMK A01 T02940166  RH  046%=      5-min Rain = 0
KCA2 150448Z 06002KT 29/17 A3004 RMK A01 T02940166  RH  046%=      5-min Rain = 0
KCA2 150449Z 05003KT 29/17 A3004 RMK A01 T02940166  RH  046%=      5-min Rain = 0
KCA2 150450Z 04003KT 29/17 A3004 RMK A01 T02940166  RH  046%=      5-min Rain = 0
KCA2 150451Z 04003KT 29/17 A3004 RMK A01 T02940166  RH  046%=      5-min Rain = 0
KCA2 150452Z 05003KT 29/17 A3004 RMK A01 T02940166  RH  046%=      5-min Rain = 0
KCA2 150453Z 05003KT 29/17 A3004 RMK A01 T02940166  RH  046%=      5-min Rain = 0
KCA2 150454Z 05003KT 29/17 A3005 RMK A01 T02940166  RH  046%=      5-min Rain = 0
KCA2 150455Z 05003KT 29/17 A3005 RMK A01 T02940166  RH  046%=      5-min Rain = 0
KCA2 150456Z 06003KT 29/17 A3005 RMK A01 T02940166  RH  046%=      5-min Rain = 0
KCA2 150457Z 05003KT 29/17 A3005 RMK A01 T02940166  RH  046%=      5-min Rain = 0
KCA2 150458Z 05003KT 29/17 A3005 RMK A01 T02940166  RH  046%=      5-min Rain = 0
KCA2 150459Z 06003KT 29/17 A3005 RMK A01 T02940166  RH  046%=      5-min Rain = 0

Page generated in 0.1226 seconds.